Radiosonde details



Informationen :

Serial : X3123339
Type : RS41-SGE
Frequency : 404.000MHz
Launchsite : Keflavikurflugvollur
Nearest town : Þorlákshöfn, IS (23km)

Altitude (Max) : 30847m at 2026-09-01 00:47:37
Speed (Max) : 81km/h at altitude 8978m

Average speed : 34km/h
Average ascent rate : 5m/s
Average descent rate : -28m/s
Ascent rate (Max) : 8.9m/s
Descent rate (Max): -79.8m/s

First frame :
DL9RDZ-2 at 2026-08-31 23:03:19 at altitude 747m (OG: 705m)
Last frame :
DL9RDZ-1 at 2026-09-01 01:05:59 at altitude 1803m (OG: 1761m)

Flighttime : 2h2m40s
Ascent time : 1h44m18s
Descent time : 18m22s
Uptime : -
Killtimer : 8h12m

Distance (Straight line distance): 51km

Distance (Route):


Frames : 617


Measurement :

Temperature : -2.5°C
Humidity : 85.6%
Pressure : 0hPa


Vertical profile (SkewT) :


Elevation profile :



Receiving stations :


Receiver Frames First received Last received
DL9RDZ-1 617 2026-08-31 23:03:19 2026-09-01 01:05:59

Share per receiver :



All frames :


Receiver Date Latitude Longitude Direction Speed Altitude Climb Temperature Humidity Pressure Voltage Killtimer Uptime BKT XDATA
DL9RDZ-12026-09-01 01:05:5963.71926-21.73473181°13km/h1803m-13.1m/s-2.5°C85.6%0hPa0V08:12:0000:00:0000:00:00
DL9RDZ-12026-09-01 01:05:4263.71970-21.73484162°13km/h2012m-14.9m/s-4.0°C84.9%0hPa0V08:12:0000:00:0000:00:00
DL9RDZ-12026-09-01 01:05:3163.71999-21.73511141°11km/h2159m-14.7m/s-4.9°C76.8%0hPa0V08:12:0000:00:0000:00:00
DL9RDZ-12026-09-01 01:05:2063.72033-21.73555162°18km/h2315m-15.0m/s-5.5°C65.8%0hPa0V08:12:0000:00:0000:00:00
DL9RDZ-12026-09-01 01:05:1063.72076-21.73582168°20km/h2452m-13.9m/s-6.8°C78.9%0hPa0V08:12:0000:00:0000:00:00
DL9RDZ-12026-09-01 01:04:5963.72131-21.73612169°22km/h2605m-14.1m/s-7.7°C69.7%0hPa0V08:13:0000:00:0000:00:00
DL9RDZ-12026-09-01 01:04:4863.72181-21.73654165°16km/h2756m-13.9m/s-8.8°C76.6%0hPa0V08:13:0000:00:0000:00:00
DL9RDZ-12026-09-01 01:04:3763.72218-21.73699149°13km/h2910m-14.5m/s-9.8°C63.1%0hPa0V08:13:0000:00:0000:00:00
DL9RDZ-12026-09-01 01:04:2763.72253-21.73749152°16km/h3050m-14.9m/s-10.8°C64.1%0hPa0V08:13:0000:00:0000:00:00
DL9RDZ-12026-09-01 01:04:1663.72293-21.73798163°16km/h3208m-14.2m/s-11.9°C58.3%0hPa0V08:14:0000:00:0000:00:00
DL9RDZ-12026-09-01 01:04:0563.72343-21.73833163°22km/h3356m-14.7m/s-13.0°C53.0%0hPa0V08:14:0000:00:0000:00:00
DL9RDZ-12026-09-01 01:03:5563.72399-21.73878155°24km/h3497m-15.5m/s-13.9°C59.5%0hPa0V08:14:0000:00:0000:00:00
DL9RDZ-12026-09-01 01:03:4463.72456-21.73949157°22km/h3659m-14.7m/s-15.0°C57.1%0hPa0V08:14:0000:00:0000:00:00
DL9RDZ-12026-09-01 01:03:3363.72514-21.74010154°26km/h3814m-14.0m/s-16.1°C65.4%0hPa0V08:14:0000:00:0000:00:00
DL9RDZ-12026-09-01 01:03:2363.72571-21.74079153°26km/h3957m-15.2m/s-16.9°C50.5%0hPa0V08:15:0000:00:0000:00:00
DL9RDZ-12026-09-01 01:03:1263.72638-21.74150155°29km/h4108m-14.2m/s-17.5°C32.4%0hPa0V08:15:0000:00:0000:00:00
DL9RDZ-12026-09-01 01:03:0163.72712-21.74258147°33km/h4264m-14.4m/s-18.2°C23.8%0hPa0V08:15:0000:00:0000:00:00
DL9RDZ-12026-09-01 01:02:5063.72801-21.74373150°37km/h4424m-15.9m/s-18.7°C23.3%0hPa0V08:15:0000:00:0000:00:00
DL9RDZ-12026-09-01 01:02:4063.72883-21.74469157°38km/h4570m-14.5m/s-19.4°C20.4%0hPa0V08:15:0000:00:0000:00:00
DL9RDZ-12026-09-01 01:02:3063.72975-21.74577149°42km/h4716m-15.9m/s-20.4°C30.0%0hPa0V08:16:0000:00:0000:00:00
DL9RDZ-12026-09-01 01:02:2063.73063-21.74693153°40km/h4862m-14.6m/s-21.5°C41.8%0hPa0V08:16:0000:00:0000:00:00
DL9RDZ-12026-09-01 01:02:0963.73165-21.74842148°44km/h5025m-15.1m/s-22.1°C57.0%0hPa0V08:16:0000:00:0000:00:00
DL9RDZ-12026-09-01 01:01:5863.73273-21.74990145°47km/h5184m-16.0m/s-23.1°C60.9%0hPa0V08:16:0000:00:0000:00:00
DL9RDZ-12026-09-01 01:01:4763.73378-21.75163146°49km/h5348m-15.8m/s-24.1°C60.9%0hPa0V08:16:0000:00:0000:00:00
DL9RDZ-12026-09-01 01:01:3663.73492-21.75344148°49km/h5516m-15.3m/s-24.9°C61.3%0hPa0V00:00:0000:00:0000:00:00
DL9RDZ-12026-09-01 01:01:2663.73598-21.75502152°49km/h5669m-15.4m/s-25.7°C60.1%0hPa0V00:00:0000:00:0000:00:00
DL9RDZ-12026-09-01 01:01:1563.73720-21.75666149°51km/h5834m-15.7m/s-26.9°C59.9%0hPa0V00:00:0000:00:0000:00:00
DL9RDZ-12026-09-01 01:01:0463.73840-21.75852145°53km/h6004m-16.3m/s-27.9°C59.1%0hPa0V00:00:0000:00:0000:00:00
DL9RDZ-12026-09-01 01:00:4763.74035-21.76134153°53km/h6281m-16.4m/s-29.3°C57.4%0hPa0V08:18:0000:00:0000:00:00
DL9RDZ-12026-09-01 01:00:3763.74153-21.76302147°57km/h6445m-16.8m/s-30.4°C57.0%0hPa0V08:18:0000:00:0000:00:00
DL9RDZ-12026-09-01 01:00:2663.74287-21.76498146°58km/h6618m-16.2m/s-31.5°C57.6%0hPa0V08:18:0000:00:0000:00:00
DL9RDZ-12026-09-01 01:00:1863.74415-21.76667153°60km/h6771m-15.7m/s-32.6°C51.9%0hPa0V08:18:0000:00:0000:00:00
DL9RDZ-12026-09-01 01:00:0563.74566-21.76863152°62km/h6941m-15.1m/s-33.8°C51.8%0hPa0V08:18:0000:00:0000:00:00
DL9RDZ-12026-09-01 00:59:5463.74714-21.77056150°64km/h7102m-15.5m/s-35.1°C54.7%0hPa0V08:18:0000:00:0000:00:00
DL9RDZ-12026-09-01 00:59:4363.74865-21.77239155°62km/h7264m-14.7m/s-36.4°C50.8%0hPa0V08:18:0000:00:0000:00:00
DL9RDZ-12026-09-01 00:59:3363.75002-21.77411149°62km/h7417m-16.1m/s-37.4°C49.7%0hPa0V08:18:0000:00:0000:00:00
DL9RDZ-12026-09-01 00:59:2263.75154-21.77606153°64km/h7588m-15.9m/s-38.7°C50.0%0hPa0V08:18:0000:00:0000:00:00
DL9RDZ-12026-09-01 00:59:1163.75310-21.77812152°66km/h7763m-16.7m/s-39.9°C50.3%0hPa0V00:00:0000:00:0000:00:00
DL9RDZ-12026-09-01 00:59:0163.75457-21.77984156°68km/h7924m-17.1m/s-41.1°C48.4%0hPa0V00:00:0000:00:0000:00:00
DL9RDZ-12026-09-01 00:58:5163.75604-21.78155153°68km/h8088m-16.8m/s-42.4°C48.4%0hPa0V00:00:0000:00:0000:00:00
DL9RDZ-12026-09-01 00:58:4263.75755-21.78345154°68km/h8253m-16.2m/s-43.3°C50.4%0hPa0V00:00:0000:00:0000:00:00
DL9RDZ-12026-09-01 00:58:3063.75925-21.78534153°69km/h8432m-17.0m/s-44.7°C52.6%0hPa0V00:00:0000:00:0000:00:00
DL9RDZ-12026-09-01 00:58:1863.76114-21.78759154°77km/h8628m-17.2m/s-45.9°C45.6%0hPa0V00:00:0000:00:0000:00:00
DL9RDZ-12026-09-01 00:58:0763.76303-21.78969157°77km/h8812m-16.4m/s-47.1°C43.3%0hPa0V00:00:0000:00:0000:00:00
DL9RDZ-12026-09-01 00:57:5763.76482-21.79150156°80km/h8978m-17.1m/s-48.5°C43.1%0hPa0V00:00:0000:00:0000:00:00
DL9RDZ-12026-09-01 00:57:4663.76677-21.79359158°77km/h9167m-17.2m/s-50.0°C41.0%0hPa0V00:00:0000:00:0000:00:00
DL9RDZ-12026-09-01 00:56:0963.77993-21.81514123°51km/h10872m-18.2m/s-54.2°C7.7%0hPa0V00:00:0000:00:0000:00:00
DL9RDZ-12026-09-01 00:55:4763.78137-21.82091125°47km/h11285m-19.7m/s-50.3°C2.1%0hPa0V08:23:0000:00:0000:00:00
DL9RDZ-12026-09-01 00:55:3663.78201-21.82346120°49km/h11496m-20.2m/s-48.7°C1.6%0hPa0V08:23:0000:00:0000:00:00
DL9RDZ-12026-09-01 00:55:2563.78262-21.82601114°46km/h11714m-20.7m/s-47.3°C1.3%0hPa0V08:23:0000:00:0000:00:00
DL9RDZ-12026-09-01 00:55:1463.78304-21.82847106°38km/h11949m-23.9m/s-46.3°C1.2%0hPa0V08:23:0000:00:0000:00:00
DL9RDZ-12026-09-01 00:55:0563.78331-21.83082103°44km/h12169m-22.4m/s-45.8°C1.2%0hPa0V08:23:0000:00:0000:00:00
DL9RDZ-12026-09-01 00:54:5363.78357-21.83337109°44km/h12422m-24.3m/s-45.7°C1.1%0hPa0V08:24:0000:00:0000:00:00
DL9RDZ-12026-09-01 00:54:4263.78388-21.83548111°29km/h12691m-25.6m/s-44.8°C1.0%0hPa0V08:24:0000:00:0000:00:00
DL9RDZ-12026-09-01 00:54:3263.78411-21.83695100°31km/h12935m-24.9m/s-45.7°C1.1%0hPa0V08:24:0000:00:0000:00:00
DL9RDZ-12026-09-01 00:54:2163.78409-21.8392493°31km/h13200m-22.7m/s-45.5°C1.1%0hPa0V08:24:0000:00:0000:00:00
DL9RDZ-12026-09-01 00:54:1063.78410-21.8412688°33km/h13489m-25.8m/s-45.3°C1.0%0hPa0V08:24:0000:00:0000:00:00
DL9RDZ-12026-09-01 00:54:0063.78408-21.8432795°31km/h13754m-27.8m/s-46.1°C1.1%0hPa0V08:24:0000:00:0000:00:00
DL9RDZ-12026-09-01 00:53:5063.78405-21.8447385°31km/h14032m-29.3m/s-46.2°C1.1%0hPa0V08:24:0000:00:0000:00:00
DL9RDZ-12026-09-01 00:53:4063.78391-21.8466582°38km/h14316m-28.1m/s-45.8°C1.0%0hPa0V08:24:0000:00:0000:00:00
DL9RDZ-12026-09-01 00:53:2963.78395-21.84904100°31km/h14610m-28.4m/s-45.5°C1.0%0hPa0V08:24:0000:00:0000:00:00
DL9RDZ-12026-09-01 00:53:1963.78390-21.8507978°35km/h14895m-29.5m/s-45.7°C0.9%0hPa0V08:24:0000:00:0000:00:00
DL9RDZ-12026-09-01 00:53:0863.78378-21.8526689°24km/h15217m-29.8m/s-44.9°C0.8%0hPa0V08:25:0000:00:0000:00:00
DL9RDZ-12026-09-01 00:52:5863.78373-21.8540493°31km/h15497m-29.6m/s-46.0°C0.9%0hPa0V08:25:0000:00:0000:00:00
DL9RDZ-12026-09-01 00:52:4763.78380-21.8559290°24km/h15821m-31.1m/s-46.5°C0.9%0hPa0V08:25:0000:00:0000:00:00
DL9RDZ-12026-09-01 00:52:3663.78376-21.8576494°22km/h16152m-30.6m/s-45.7°C0.9%0hPa0V08:25:0000:00:0000:00:00
DL9RDZ-12026-09-01 00:52:2663.78352-21.8589052°29km/h16487m-32.1m/s-45.9°C0.9%0hPa0V08:25:0000:00:0000:00:00
DL9RDZ-12026-09-01 00:52:1663.78322-21.8607780°35km/h16812m-35.7m/s-46.3°C0.8%0hPa0V08:26:0000:00:0000:00:00
DL9RDZ-12026-09-01 00:52:0063.78306-21.8632973°20km/h17369m-33.8m/s-46.8°C0.9%0hPa0V08:26:0000:00:0000:00:00
DL9RDZ-12026-09-01 00:51:3463.78254-21.8665784°27km/h18222m-34.1m/s-47.1°C0.9%0hPa0V08:26:0000:00:0000:00:00
DL9RDZ-12026-09-01 00:51:2363.78229-21.8680456°29km/h18616m-35.5m/s-47.0°C0.9%0hPa0V08:27:0000:00:0000:00:00
DL9RDZ-12026-09-01 00:51:1263.78196-21.8696391°26km/h18998m-36.8m/s-47.6°C0.9%0hPa0V08:27:0000:00:0000:00:00
DL9RDZ-12026-09-01 00:51:0263.78187-21.8707456°18km/h19428m-42.1m/s-46.6°C0.8%0hPa0V08:27:0000:00:0000:00:00
DL9RDZ-12026-09-01 00:50:5063.78159-21.8718768°26km/h19888m-43.0m/s-47.1°C0.8%0hPa0V08:27:0000:00:0000:00:00
DL9RDZ-12026-09-01 00:50:4063.78132-21.8728241°18km/h20307m-41.8m/s-47.5°C0.8%0hPa0V08:28:0000:00:0000:00:00
DL9RDZ-12026-09-01 00:50:2963.78093-21.8741071°24km/h20761m-44.2m/s-47.4°C0.8%0hPa0V08:28:0000:00:0000:00:00
DL9RDZ-12026-09-01 00:50:1863.78090-21.8756492°16km/h21316m-46.7m/s-48.0°C0.9%0hPa0V08:28:0000:00:0000:00:00
DL9RDZ-12026-09-01 00:50:0763.78052-21.8765243°31km/h21768m-44.4m/s-47.1°C0.8%0hPa0V08:28:0000:00:0000:00:00
DL9RDZ-12026-09-01 00:49:5663.78007-21.8781266°31km/h22295m-50.5m/s-46.5°C0.8%0hPa0V08:28:0000:00:0000:00:00
DL9RDZ-12026-09-01 00:49:4663.77969-21.8797067°27km/h22807m-54.6m/s-46.6°C0.8%0hPa0V08:29:0000:00:0000:00:00
DL9RDZ-12026-09-01 00:49:3663.77942-21.8811767°26km/h23359m-57.0m/s-45.5°C0.7%0hPa0V08:29:0000:00:0000:00:00
DL9RDZ-12026-09-01 00:49:2663.77928-21.8823174°13km/h23908m-55.8m/s-45.5°C0.7%0hPa0V08:29:0000:00:0000:00:00
DL9RDZ-12026-09-01 00:49:1563.77909-21.8831081°15km/h24524m-58.0m/s-46.2°C0.7%0hPa0V08:29:0000:00:0000:00:00
DL9RDZ-12026-09-01 00:49:0463.77889-21.8839646°20km/h25167m-60.1m/s-45.8°C0.7%0hPa0V08:29:0000:00:0000:00:00
DL9RDZ-12026-09-01 00:48:5363.77871-21.8848284°5km/h25825m-60.6m/s-46.7°C0.8%0hPa0V08:29:0000:00:0000:00:00
DL9RDZ-12026-09-01 00:48:4363.77844-21.8853761°13km/h26517m-67.7m/s-46.0°C0.7%0hPa0V08:29:0000:00:0000:00:00
DL9RDZ-12026-09-01 00:48:3163.77827-21.8858539°9km/h27266m-72.3m/s-46.7°C0.8%0hPa0V08:29:0000:00:0000:00:00
DL9RDZ-12026-09-01 00:48:2063.77812-21.88601335°4km/h28073m-73.9m/s-45.0°C0.7%0hPa0V08:29:0000:00:0000:00:00
DL9RDZ-12026-09-01 00:48:1163.77798-21.88573335°9km/h28813m-75.9m/s-44.7°C0.7%0hPa0V08:29:0000:00:0000:00:00
DL9RDZ-12026-09-01 00:47:5963.77777-21.8856347°5km/h29679m-79.8m/s-44.0°C0.6%0hPa0V00:00:0000:00:0000:00:00
DL9RDZ-12026-09-01 00:47:4863.77783-21.88562221°11km/h30476m-59.5m/s-43.8°C0.6%0hPa0V00:00:0000:00:0000:00:00
DL9RDZ-12026-09-01 00:47:3763.77794-21.88471269°20km/h30847m8.9m/s-44.8°C0.6%0hPa0V00:00:0000:00:0000:00:00
DL9RDZ-12026-09-01 00:47:2763.77805-21.88393275°15km/h30788m4.9m/s-44.7°C0.6%0hPa0V00:00:0000:00:0000:00:00
DL9RDZ-12026-09-01 00:47:1663.77811-21.88314246°5km/h30724m5.9m/s-45.0°C0.6%0hPa0V00:00:0000:00:0000:00:00
DL9RDZ-12026-09-01 00:47:0663.77831-21.88261239°15km/h30666m6.5m/s-45.2°C0.6%0hPa0V00:00:0000:00:0000:00:00
DL9RDZ-12026-09-01 00:46:5563.77857-21.88190232°16km/h30603m6.5m/s-45.1°C0.6%0hPa0V00:00:0000:00:0000:00:00
DL9RDZ-12026-09-01 00:46:4463.77888-21.88190173°20km/h30539m5.5m/s-45.0°C0.6%0hPa0V00:00:0000:00:0000:00:00
DL9RDZ-12026-09-01 00:46:3363.77905-21.88210113°16km/h30472m6.0m/s-45.2°C0.6%0hPa0V00:00:0000:00:0000:00:00
DL9RDZ-12026-09-01 00:46:2363.77922-21.88250123°7km/h30412m5.2m/s-45.5°C0.6%0hPa0V00:00:0000:00:0000:00:00
DL9RDZ-12026-09-01 00:46:1263.77924-21.8832564°15km/h30347m5.6m/s-46.1°C0.7%0hPa0V00:00:0000:00:0000:00:00
DL9RDZ-12026-09-01 00:46:0263.77911-21.8839023°11km/h30288m6.5m/s-46.0°C0.7%0hPa0V00:00:0000:00:0000:00:00
DL9RDZ-12026-09-01 00:45:5263.77888-21.8842511°7km/h30229m5.6m/s-46.0°C0.7%0hPa0V00:00:0000:00:0000:00:00
DL9RDZ-12026-09-01 00:45:4163.77856-21.8844120°18km/h30163m5.7m/s-45.9°C0.7%0hPa0V00:00:0000:00:0000:00:00
DL9RDZ-12026-09-01 00:45:3263.77820-21.88440333°15km/h30104m5.8m/s-45.8°C0.7%0hPa0V00:00:0000:00:0000:00:00
DL9RDZ-12026-09-01 00:45:2163.77780-21.88419334°16km/h30043m6.1m/s-45.8°C0.6%0hPa0V00:00:0000:00:0000:00:00
DL9RDZ-12026-09-01 00:45:1063.77745-21.8839826°15km/h29978m5.0m/s-45.7°C0.7%0hPa0V00:00:0000:00:0000:00:00
DL9RDZ-12026-09-01 00:45:0063.77713-21.88387313°16km/h29921m6.1m/s-45.5°C0.6%0hPa0V00:00:0000:00:0000:00:00
DL9RDZ-12026-09-01 00:44:4963.77686-21.88396306°11km/h29858m6.8m/s-45.5°C0.6%0hPa0V00:00:0000:00:0000:00:00
DL9RDZ-12026-09-01 00:44:3963.77671-21.8839040°11km/h29802m5.4m/s-45.5°C0.6%0hPa0V00:00:0000:00:0000:00:00
DL9RDZ-12026-09-01 00:44:2863.77650-21.8840387°13km/h29739m6.3m/s-46.1°C0.7%0hPa0V00:00:0000:00:0000:00:00
DL9RDZ-12026-09-01 00:44:1763.77626-21.8844425°16km/h29680m6.3m/s-46.5°C0.7%0hPa0V00:00:0000:00:0000:00:00
DL9RDZ-12026-09-01 00:44:0663.77585-21.8851110°15km/h29620m5.9m/s-46.7°C0.7%0hPa0V00:00:0000:00:0000:00:00
DL9RDZ-12026-09-01 00:43:5663.77532-21.8853722°20km/h29566m5.6m/s-46.9°C0.7%0hPa0V00:00:0000:00:0000:00:00
DL9RDZ-12026-09-01 00:43:4563.77456-21.88523358°31km/h29506m6.2m/s-46.8°C0.7%0hPa0V00:00:0000:00:0000:00:00
DL9RDZ-12026-09-01 00:43:3463.77391-21.88498338°27km/h29444m5.9m/s-46.9°C0.7%0hPa0V00:00:0000:00:0000:00:00
DL9RDZ-12026-09-01 00:43:2463.77336-21.88452331°27km/h29391m6.4m/s-46.8°C0.7%0hPa0V00:00:0000:00:0000:00:00
DL9RDZ-12026-09-01 00:43:1363.77295-21.88349313°9km/h29328m6.4m/s-46.6°C0.7%0hPa0V00:00:0000:00:0000:00:00
DL9RDZ-12026-09-01 00:43:0263.77257-21.88257290°15km/h29267m6.7m/s-46.3°C0.7%0hPa0V00:00:0000:00:0000:00:00
DL9RDZ-12026-09-01 00:42:5163.77250-21.88186274°22km/h29205m4.9m/s-46.7°C0.7%0hPa0V00:00:0000:00:0000:00:00
DL9RDZ-12026-09-01 00:42:4763.77251-21.881360km/h29141m5.4m/s-46.8°C0.7%0hPa0V00:00:0000:00:0000:00:00
DL9RDZ-12026-09-01 00:42:2963.77253-21.88126177°2km/h29079m5.3m/s-46.8°C0.7%0hPa0V00:00:0000:00:0000:00:00
DL9RDZ-12026-09-01 00:42:1863.77252-21.8814717°9km/h29015m6.2m/s-46.6°C0.7%0hPa0V00:00:0000:00:0000:00:00
DL9RDZ-12026-09-01 00:42:0863.77234-21.8816015°7km/h28958m6.2m/s-46.6°C0.7%0hPa0V00:00:0000:00:0000:00:00
DL9RDZ-12026-09-01 00:41:5763.77201-21.881579km/h28898m5.7m/s-46.9°C0.7%0hPa0V00:00:0000:00:0000:00:00
DL9RDZ-12026-09-01 00:41:4763.77159-21.88125319°22km/h28836m5.6m/s-47.1°C0.7%0hPa0V00:00:0000:00:0000:00:00
DL9RDZ-12026-09-01 00:41:3563.77127-21.88080331°16km/h28772m6.7m/s-47.3°C0.8%0hPa0V00:00:0000:00:0000:00:00
DL9RDZ-12026-09-01 00:41:2463.77099-21.87998292°13km/h28706m6.6m/s-47.1°C0.7%0hPa0V00:00:0000:00:0000:00:00
DL9RDZ-12026-09-01 00:41:1463.77078-21.87919289°11km/h28647m6.9m/s-47.1°C0.7%0hPa0V00:00:0000:00:0000:00:00
DL9RDZ-12026-09-01 00:41:0563.77077-21.87861282°16km/h28588m5.9m/s-46.7°C0.7%0hPa0V00:00:0000:00:0000:00:00
DL9RDZ-12026-09-01 00:40:5363.77084-21.87794249°11km/h28523m7.0m/s-46.6°C0.7%0hPa0V00:00:0000:00:0000:00:00
DL9RDZ-12026-09-01 00:40:4363.77087-21.87732183°13km/h28464m5.9m/s-46.5°C0.7%0hPa0V00:00:0000:00:0000:00:00
DL9RDZ-12026-09-01 00:40:3363.77089-21.8770921°4km/h28406m5.6m/s-46.4°C0.7%0hPa0V00:00:0000:00:0000:00:00
DL9RDZ-12026-09-01 00:40:2263.77095-21.87730297°7km/h28339m5.3m/s-46.3°C0.7%0hPa0V00:00:0000:00:0000:00:00
DL9RDZ-12026-09-01 00:40:1163.77099-21.8774954°5km/h28272m7.2m/s-46.5°C0.7%0hPa0V00:00:0000:00:0000:00:00
DL9RDZ-12026-09-01 00:40:0163.77093-21.87773148°7km/h28214m5.1m/s-46.6°C0.7%0hPa0V00:00:0000:00:0000:00:00
DL9RDZ-12026-09-01 00:39:5063.77090-21.8779481°11km/h28149m5.3m/s-46.7°C0.7%0hPa0V00:00:0000:00:0000:00:00
DL9RDZ-12026-09-01 00:39:4063.77085-21.878430km/h28094m5.2m/s-47.0°C0.7%0hPa0V00:00:0000:00:0000:00:00
DL9RDZ-12026-09-01 00:39:1963.77040-21.8792781°18km/h27975m5.4m/s-47.2°C0.7%0hPa0V00:00:0000:00:0000:00:00
DL9RDZ-12026-09-01 00:39:0963.77030-21.87963301°7km/h27918m4.6m/s-47.6°C0.8%0hPa0V00:00:0000:00:0000:00:00
DL9RDZ-12026-09-01 00:38:5863.77031-21.8799361°9km/h27857m5.5m/s-47.6°C0.7%0hPa0V00:00:0000:00:0000:00:00
DL9RDZ-12026-09-01 00:38:4763.77017-21.8804457°15km/h27794m5.2m/s-47.6°C0.8%0hPa0V00:00:0000:00:0000:00:00
DL9RDZ-12026-09-01 00:38:3763.76995-21.8808651°18km/h27737m5.6m/s-47.6°C0.8%0hPa0V00:00:0000:00:0000:00:00
DL9RDZ-12026-09-01 00:38:2763.76967-21.8814526°9km/h27672m6.3m/s-47.5°C0.8%0hPa0V00:00:0000:00:0000:00:00
DL9RDZ-12026-09-01 00:38:1663.76940-21.8821843°13km/h27613m6.1m/s-47.4°C0.8%0hPa0V00:00:0000:00:0000:00:00
DL9RDZ-12026-09-01 00:38:0563.76919-21.8826974°24km/h27550m4.0m/s-47.6°C0.7%0hPa0V00:00:0000:00:0000:00:00
DL9RDZ-12026-09-01 00:37:5463.76894-21.8831750°15km/h27486m6.1m/s-48.2°C0.8%0hPa0V00:00:0000:00:0000:00:00
DL9RDZ-12026-09-01 00:37:4363.76868-21.8840144°4km/h27422m6.4m/s-48.6°C0.8%0hPa0V00:00:0000:00:0000:00:00
DL9RDZ-12026-09-01 00:37:3263.76845-21.8847067°11km/h27359m5.1m/s-48.7°C0.8%0hPa0V00:00:0000:00:0000:00:00
DL9RDZ-12026-09-01 00:37:2263.76830-21.8850838°18km/h27301m5.2m/s-49.0°C0.8%0hPa0V00:00:0000:00:0000:00:00
DL9RDZ-12026-09-01 00:37:1163.76797-21.8856836°15km/h27236m5.3m/s-49.1°C0.8%0hPa0V00:00:0000:00:0000:00:00
DL9RDZ-12026-09-01 00:37:0163.76769-21.886239km/h27180m4.4m/s-49.1°C0.8%0hPa0V00:00:0000:00:0000:00:00
DL9RDZ-12026-09-01 00:36:5063.76759-21.8862052°2km/h27117m5.4m/s-49.3°C0.9%0hPa0V00:00:0000:00:0000:00:00
DL9RDZ-12026-09-01 00:36:3963.76736-21.8863711°11km/h27052m6.4m/s-49.0°C0.8%0hPa0V00:00:0000:00:0000:00:00
DL9RDZ-12026-09-01 00:36:2963.76717-21.88667321°4km/h26993m6.0m/s-48.6°C0.8%0hPa0V00:00:0000:00:0000:00:00
DL9RDZ-12026-09-01 00:36:1763.76708-21.8871398°15km/h26923m6.1m/s-48.3°C0.8%0hPa0V00:00:0000:00:0000:00:00
DL9RDZ-12026-09-01 00:36:0663.76712-21.88750111°15km/h26860m5.2m/s-48.2°C0.8%0hPa0V00:00:0000:00:0000:00:00
DL9RDZ-12026-09-01 00:35:5463.76711-21.8883683°11km/h26790m5.9m/s-48.0°C0.8%0hPa0V00:00:0000:00:0000:00:00
DL9RDZ-12026-09-01 00:35:4363.76706-21.8892337°11km/h26726m6.2m/s-47.8°C0.8%0hPa0V00:00:0000:00:0000:00:00
DL9RDZ-12026-09-01 00:35:3263.76699-21.8902673°16km/h26665m5.1m/s-47.9°C0.8%0hPa0V00:00:0000:00:0000:00:00
DL9RDZ-12026-09-01 00:35:2263.76680-21.8909683°18km/h26610m4.5m/s-47.5°C0.8%0hPa0V00:00:0000:00:0000:00:00
DL9RDZ-12026-09-01 00:35:1263.76649-21.8917544°24km/h26554m5.2m/s-47.4°C0.8%0hPa0V00:00:0000:00:0000:00:00
DL9RDZ-12026-09-01 00:35:0163.76602-21.8925837°29km/h26493m6.1m/s-47.6°C0.8%0hPa0V00:00:0000:00:0000:00:00
DL9RDZ-12026-09-01 00:34:5063.76546-21.8936920°24km/h26432m4.9m/s-47.7°C0.8%0hPa0V00:00:0000:00:0000:00:00
DL9RDZ-12026-09-01 00:31:3663.76175-21.9072634°29km/h25343m4.9m/s-47.9°C0.8%0hPa0V00:00:0000:00:0000:00:00
DL9RDZ-12026-09-01 00:31:2563.76107-21.9082558°22km/h25281m6.2m/s-47.5°C0.8%0hPa0V00:00:0000:00:0000:00:00
DL9RDZ-12026-09-01 00:31:1463.76051-21.9092657°22km/h25219m5.6m/s-47.6°C0.8%0hPa0V00:00:0000:00:0000:00:00
DL9RDZ-12026-09-01 00:30:3663.75993-21.91385112°22km/h25005m5.2m/s-47.8°C0.8%0hPa0V00:00:0000:00:0000:00:00
DL9RDZ-12026-09-01 00:30:2563.75995-21.9150499°22km/h24942m5.8m/s-47.6°C0.8%0hPa0V00:00:0000:00:0000:00:00
DL9RDZ-12026-09-01 00:30:1363.76010-21.91623136°20km/h24873m4.7m/s-47.9°C0.8%0hPa0V00:00:0000:00:0000:00:00
DL9RDZ-12026-09-01 00:29:5263.76052-21.91845104°18km/h24756m5.6m/s-48.0°C0.8%0hPa0V00:00:0000:00:0000:00:00
DL9RDZ-12026-09-01 00:29:4163.76063-21.9198593°20km/h24694m4.2m/s-48.0°C0.9%0hPa0V00:00:0000:00:0000:00:00
DL9RDZ-12026-09-01 00:29:3263.76051-21.9211596°26km/h24638m5.1m/s-48.0°C0.8%0hPa0V00:00:0000:00:0000:00:00
DL9RDZ-12026-09-01 00:29:2163.76031-21.9224948°26km/h24584m5.0m/s-48.2°C0.9%0hPa0V00:00:0000:00:0000:00:00
DL9RDZ-12026-09-01 00:28:5963.75964-21.9249170°20km/h24462m5.2m/s-48.1°C0.9%0hPa0V00:00:0000:00:0000:00:00
DL9RDZ-12026-09-01 00:28:4863.75908-21.9257436°24km/h24401m5.9m/s-47.9°C0.9%0hPa0V00:00:0000:00:0000:00:00
DL9RDZ-12026-09-01 00:28:3863.75854-21.9262123°16km/h24347m6.0m/s-47.4°C0.8%0hPa0V00:00:0000:00:0000:00:00
DL9RDZ-12026-09-01 00:28:2763.75810-21.92683360°20km/h24285m3.9m/s-47.0°C0.8%0hPa0V00:00:0000:00:0000:00:00
DL9RDZ-12026-09-01 00:28:1763.75785-21.9272943°18km/h24231m4.7m/s-46.7°C0.8%0hPa0V00:00:0000:00:0000:00:00
DL9RDZ-12026-09-01 00:28:0663.75751-21.9274827°9km/h24171m6.1m/s-46.6°C0.8%0hPa0V00:00:0000:00:0000:00:00
DL9RDZ-12026-09-01 00:27:5563.75737-21.9278363°7km/h24108m6.0m/s-46.4°C0.8%0hPa0V00:00:0000:00:0000:00:00
DL9RDZ-12026-09-01 00:27:4463.75735-21.92860106°15km/h24046m6.8m/s-46.4°C0.8%0hPa0V00:00:0000:00:0000:00:00
DL9RDZ-12026-09-01 00:27:3363.75743-21.92975110°20km/h23985m4.9m/s-46.5°C0.8%0hPa0V00:00:0000:00:0000:00:00
DL9RDZ-12026-09-01 00:27:2363.75757-21.9311088°24km/h23932m4.3m/s-46.7°C0.8%0hPa0V00:00:0000:00:0000:00:00
DL9RDZ-12026-09-01 00:27:1263.75764-21.9321673°22km/h23872m5.0m/s-46.6°C0.8%0hPa0V00:00:0000:00:0000:00:00
DL9RDZ-12026-09-01 00:27:0263.75756-21.9333096°20km/h23820m4.5m/s-46.5°C0.8%0hPa0V00:00:0000:00:0000:00:00
DL9RDZ-12026-09-01 00:26:5163.75746-21.9351089°31km/h23759m5.4m/s-46.6°C0.8%0hPa0V00:00:0000:00:0000:00:00
DL9RDZ-12026-09-01 00:26:4063.75735-21.9369286°29km/h23699m5.4m/s-46.6°C0.8%0hPa0V00:00:0000:00:0000:00:00
DL9RDZ-12026-09-01 00:26:2963.75716-21.9388468°29km/h23642m5.3m/s-46.6°C0.8%0hPa0V00:00:0000:00:0000:00:00
DL9RDZ-12026-09-01 00:26:1963.75686-21.9404263°31km/h23588m6.4m/s-46.7°C0.8%0hPa0V00:00:0000:00:0000:00:00
DL9RDZ-12026-09-01 00:26:0863.75641-21.9417047°27km/h23528m5.4m/s-46.7°C0.8%0hPa0V00:00:0000:00:0000:00:00
DL9RDZ-12026-09-01 00:25:5763.75595-21.9429761°26km/h23471m4.3m/s-46.8°C0.8%0hPa0V00:00:0000:00:0000:00:00
DL9RDZ-12026-09-01 00:25:4763.75563-21.9443047°26km/h23417m6.3m/s-46.6°C0.8%0hPa0V00:00:0000:00:0000:00:00
DL9RDZ-12026-09-01 00:25:3663.75523-21.9457262°26km/h23358m5.9m/s-46.4°C0.8%0hPa0V00:00:0000:00:0000:00:00
DL9RDZ-12026-09-01 00:25:2563.75491-21.9470259°26km/h23301m4.6m/s-46.5°C0.8%0hPa0V00:00:0000:00:0000:00:00
DL9RDZ-12026-09-01 00:25:1463.75466-21.9482874°26km/h23243m5.1m/s-46.7°C0.8%0hPa0V00:00:0000:00:0000:00:00
DL9RDZ-12026-09-01 00:25:0463.75457-21.9498081°26km/h23185m5.3m/s-46.9°C0.8%0hPa0V00:00:0000:00:0000:00:00
DL9RDZ-12026-09-01 00:24:5363.75437-21.9511288°18km/h23132m4.7m/s-47.2°C0.8%0hPa0V00:00:0000:00:0000:00:00
DL9RDZ-12026-09-01 00:24:4363.75419-21.9524859°27km/h23078m4.9m/s-47.2°C0.8%0hPa0V00:00:0000:00:0000:00:00
DL9RDZ-12026-09-01 00:24:3263.75397-21.9541867°31km/h23022m5.7m/s-47.3°C0.9%0hPa0V00:00:0000:00:0000:00:00
DL9RDZ-12026-09-01 00:24:2163.75355-21.9557383°31km/h22963m5.5m/s-47.7°C0.9%0hPa0V00:00:0000:00:0000:00:00
DL9RDZ-12026-09-01 00:24:1163.75320-21.9571262°33km/h22910m4.0m/s-47.9°C0.9%0hPa0V00:00:0000:00:0000:00:00
DL9RDZ-12026-09-01 00:23:5163.75275-21.9598757°31km/h22810m4.8m/s-48.7°C0.9%0hPa0V00:00:0000:00:0000:00:00
DL9RDZ-12026-09-01 00:23:4063.75230-21.9616350°38km/h22755m5.4m/s-48.6°C0.9%0hPa0V00:00:0000:00:0000:00:00
DL9RDZ-12026-09-01 00:23:2963.75170-21.9636154°38km/h22696m5.2m/s-48.5°C1.0%0hPa0V00:00:0000:00:0000:00:00
DL9RDZ-12026-09-01 00:23:1963.75112-21.9652462°37km/h22645m4.6m/s-48.2°C0.9%0hPa0V00:00:0000:00:0000:00:00
DL9RDZ-12026-09-01 00:23:0863.75056-21.9668657°31km/h22588m4.8m/s-48.0°C0.9%0hPa0V00:00:0000:00:0000:00:00
DL9RDZ-12026-09-01 00:22:5863.75010-21.9682255°24km/h22536m4.3m/s-47.9°C0.9%0hPa0V00:00:0000:00:0000:00:00
DL9RDZ-12026-09-01 00:22:3763.74938-21.9708457°24km/h22426m6.1m/s-48.0°C0.9%0hPa0V00:00:0000:00:0000:00:00
DL9RDZ-12026-09-01 00:22:2663.74909-21.9721968°26km/h22370m4.9m/s-47.8°C0.9%0hPa0V00:00:0000:00:0000:00:00
DL9RDZ-12026-09-01 00:22:1563.74895-21.9736588°27km/h22311m5.0m/s-47.8°C0.9%0hPa0V00:00:0000:00:0000:00:00
DL9RDZ-12026-09-01 00:22:0463.74877-21.9752284°27km/h22253m4.5m/s-47.8°C0.9%0hPa0V00:00:0000:00:0000:00:00
DL9RDZ-12026-09-01 00:21:5463.74857-21.9768368°33km/h22200m6.2m/s-48.3°C0.9%0hPa0V00:00:0000:00:0000:00:00
DL9RDZ-12026-09-01 00:21:3363.74755-21.9799838°29km/h22088m5.0m/s-48.2°C0.9%0hPa0V00:00:0000:00:0000:00:00
DL9RDZ-12026-09-01 00:21:2263.74672-21.9814729°26km/h22030m5.2m/s-48.2°C1.0%0hPa0V00:00:0000:00:0000:00:00
DL9RDZ-12026-09-01 00:21:1663.74608-21.9820927°33km/h21977m6.1m/s-48.3°C1.0%0hPa0V00:00:0000:00:0000:00:00
DL9RDZ-12026-09-01 00:21:0263.74545-21.9826422°27km/h21925m4.4m/s-48.3°C0.9%0hPa0V00:00:0000:00:0000:00:00
DL9RDZ-12026-09-01 00:20:5163.74479-21.9832726km/h21867m4.7m/s-48.0°C0.9%0hPa0V00:00:0000:00:0000:00:00
DL9RDZ-12026-09-01 00:20:4063.74424-21.9837239°22km/h21808m5.4m/s-48.3°C1.0%0hPa0V00:00:0000:00:0000:00:00
DL9RDZ-12026-09-01 00:20:3063.74365-21.9845823°29km/h21754m6.0m/s-48.4°C0.9%0hPa0V00:00:0000:00:0000:00:00
DL9RDZ-12026-09-01 00:20:1963.74303-21.9853441°22km/h21697m5.0m/s-48.0°C0.9%0hPa0V00:00:0000:00:0000:00:00
DL9RDZ-12026-09-01 00:20:0863.74257-21.9860252°18km/h21640m5.2m/s-47.9°C0.9%0hPa0V00:00:0000:00:0000:00:00
DL9RDZ-12026-09-01 00:19:5763.74224-21.9865364°11km/h21584m5.0m/s-48.3°C1.0%0hPa0V00:00:0000:00:0000:00:00
DL9RDZ-12026-09-01 00:19:4663.74211-21.9871391°11km/h21525m4.1m/s-48.1°C1.0%0hPa0V00:00:0000:00:0000:00:00
DL9RDZ-12026-09-01 00:19:3563.74209-21.9880283°18km/h21467m4.7m/s-48.1°C1.0%0hPa0V00:00:0000:00:0000:00:00
DL9RDZ-12026-09-01 00:19:1363.74241-21.99046119°26km/h21354m5.0m/s-48.5°C1.0%0hPa0V00:00:0000:00:0000:00:00
DL9RDZ-12026-09-01 00:19:0363.74256-21.99194116°27km/h21301m4.3m/s-48.4°C1.0%0hPa0V00:00:0000:00:0000:00:00
DL9RDZ-12026-09-01 00:18:5263.74273-21.9938790°37km/h21245m5.9m/s-48.3°C1.0%0hPa0V00:00:0000:00:0000:00:00
DL9RDZ-12026-09-01 00:18:4263.74283-21.9958389°33km/h21192m6.2m/s-48.3°C1.0%0hPa0V00:00:0000:00:0000:00:00
DL9RDZ-12026-09-01 00:18:3163.74278-21.9981097°33km/h21135m5.8m/s-48.3°C1.0%0hPa0V00:00:0000:00:0000:00:00
DL9RDZ-12026-09-01 00:17:4663.74171-22.0048545°26km/h20903m5.4m/s-48.1°C1.0%0hPa0V00:00:0000:00:0000:00:00
DL9RDZ-12026-09-01 00:17:3563.74129-22.0065052°22km/h20847m5.1m/s-47.7°C1.0%0hPa0V00:00:0000:00:0000:00:00
DL9RDZ-12026-09-01 00:17:2463.74083-22.0079354°27km/h20791m6.1m/s-47.8°C1.0%0hPa0V00:00:0000:00:0000:00:00
DL9RDZ-12026-09-01 00:17:1363.74038-22.0090655°27km/h20733m5.1m/s-47.4°C1.0%0hPa0V00:00:0000:00:0000:00:00
DL9RDZ-12026-09-01 00:16:2463.73776-22.0151444°35km/h20487m5.8m/s-47.4°C1.0%0hPa0V00:00:0000:00:0000:00:00
DL9RDZ-12026-09-01 00:16:1463.73711-22.0164051°31km/h20436m4.1m/s-47.3°C1.0%0hPa0V00:00:0000:00:0000:00:00
DL9RDZ-12026-09-01 00:16:0363.73656-22.0176132°29km/h20381m6.3m/s-47.1°C0.9%0hPa0V00:00:0000:00:0000:00:00
DL9RDZ-12026-09-01 00:15:5363.73610-22.0183649°22km/h20331m4.7m/s-47.4°C1.0%0hPa0V00:00:0000:00:0000:00:00
DL9RDZ-12026-09-01 00:15:4363.73582-22.0188379°7km/h20281m5.2m/s-47.7°C1.0%0hPa0V00:00:0000:00:0000:00:00
DL9RDZ-12026-09-01 00:15:3363.73569-22.0195359°16km/h20231m4.3m/s-47.7°C1.0%0hPa0V00:00:0000:00:0000:00:00
DL9RDZ-12026-09-01 00:15:2263.73549-22.0203445°16km/h20177m5.3m/s-47.9°C1.0%0hPa0V00:00:0000:00:0000:00:00
DL9RDZ-12026-09-01 00:15:1163.73530-22.0215080°20km/h20120m6.0m/s-48.0°C1.0%0hPa0V00:00:0000:00:0000:00:00
DL9RDZ-12026-09-01 00:15:0163.73506-22.0224766°29km/h20071m3.7m/s-48.0°C1.0%0hPa0V00:00:0000:00:0000:00:00
DL9RDZ-12026-09-01 00:14:5163.73483-22.0236970°27km/h20016m4.2m/s-48.0°C1.0%0hPa0V00:00:0000:00:0000:00:00
DL9RDZ-12026-09-01 00:14:3963.73460-22.0252067°18km/h19959m5.7m/s-48.1°C1.0%0hPa0V00:00:0000:00:0000:00:00
DL9RDZ-12026-09-01 00:14:2863.73432-22.0267463°24km/h19903m5.2m/s-48.0°C1.0%0hPa0V00:00:0000:00:0000:00:00
DL9RDZ-12026-09-01 00:14:1863.73397-22.0275460°24km/h19853m4.1m/s-48.0°C1.0%0hPa0V00:00:0000:00:0000:00:00
DL9RDZ-12026-09-01 00:14:0963.73375-22.0284348°18km/h19800m4.1m/s-47.9°C1.0%0hPa0V00:00:0000:00:0000:00:00
DL9RDZ-12026-09-01 00:13:5863.73350-22.0290964°18km/h19747m4.7m/s-48.0°C1.1%0hPa0V00:00:0000:00:0000:00:00
DL9RDZ-12026-09-01 00:13:4863.73333-22.0299178°15km/h19694m4.4m/s-48.1°C1.0%0hPa0V00:00:0000:00:0000:00:00
DL9RDZ-12026-09-01 00:13:3763.73316-22.0309275°15km/h19637m4.8m/s-47.9°C1.0%0hPa0V00:00:0000:00:0000:00:00
DL9RDZ-12026-09-01 00:13:2663.73296-22.0318767°16km/h19579m5.4m/s-47.6°C1.0%0hPa0V00:00:0000:00:0000:00:00
DL9RDZ-12026-09-01 00:13:1663.73272-22.0327353°18km/h19529m6.1m/s-47.2°C1.0%0hPa0V00:00:0000:00:0000:00:00
DL9RDZ-12026-09-01 00:13:0563.73248-22.0335757°18km/h19473m5.8m/s-47.2°C1.0%0hPa0V00:00:0000:00:0000:00:00
DL9RDZ-12026-09-01 00:12:5463.73222-22.0344062°9km/h19417m5.8m/s-47.0°C1.0%0hPa0V00:00:0000:00:0000:00:00
DL9RDZ-12026-09-01 00:12:4463.73206-22.0350865°16km/h19365m5.3m/s-47.0°C0.9%0hPa0V00:00:0000:00:0000:00:00
DL9RDZ-12026-09-01 00:12:3363.73211-22.03585127°15km/h19309m4.7m/s-47.4°C1.0%0hPa0V00:00:0000:00:0000:00:00
DL9RDZ-12026-09-01 00:12:2263.73216-22.0369479°18km/h19257m4.8m/s-47.7°C1.0%0hPa0V00:00:0000:00:0000:00:00
DL9RDZ-12026-09-01 00:12:1163.73199-22.0382577°16km/h19204m4.3m/s-47.8°C1.0%0hPa0V00:00:0000:00:0000:00:00
DL9RDZ-12026-09-01 00:12:0163.73198-22.0395990°15km/h19154m3.3m/s-48.2°C1.1%0hPa0V00:00:0000:00:0000:00:00
DL9RDZ-12026-09-01 00:11:4963.73217-22.0407497°22km/h19101m4.4m/s-48.0°C1.1%0hPa0V00:00:0000:00:0000:00:00
DL9RDZ-12026-09-01 00:11:3863.73228-22.0420891°24km/h19047m5.6m/s-47.7°C1.0%0hPa0V00:00:0000:00:0000:00:00
DL9RDZ-12026-09-01 00:11:2763.73212-22.0436176°27km/h18994m4.4m/s-47.7°C1.0%0hPa0V00:00:0000:00:0000:00:00
DL9RDZ-12026-09-01 00:11:1763.73191-22.0451070°24km/h18946m5.4m/s-47.7°C1.1%0hPa0V00:00:0000:00:0000:00:00
DL9RDZ-12026-09-01 00:10:5663.73097-22.0482157°38km/h18844m3.8m/s-47.5°C1.0%0hPa0V00:00:0000:00:0000:00:00
DL9RDZ-12026-09-01 00:10:4563.73023-22.0496242°37km/h18790m4.4m/s-47.3°C1.0%0hPa0V00:00:0000:00:0000:00:00
DL9RDZ-12026-09-01 00:10:3563.72945-22.0507728°35km/h18739m5.0m/s-47.4°C1.0%0hPa0V00:00:0000:00:0000:00:00
DL9RDZ-12026-09-01 00:10:2463.72877-22.0516531°29km/h18689m5.5m/s-47.4°C1.0%0hPa0V00:00:0000:00:0000:00:00
DL9RDZ-12026-09-01 00:10:1363.72825-22.0526648°24km/h18635m5.5m/s-47.4°C1.0%0hPa0V00:00:0000:00:0000:00:00
DL9RDZ-12026-09-01 00:10:0363.72787-22.0535957°22km/h18580m5.2m/s-47.2°C1.0%0hPa0V00:00:0000:00:0000:00:00
DL9RDZ-12026-09-01 00:09:5163.72752-22.0547450°22km/h18528m5.1m/s-47.1°C1.0%0hPa0V00:00:0000:00:0000:00:00
DL9RDZ-12026-09-01 00:09:4063.72723-22.0560261°22km/h18475m5.8m/s-46.9°C1.0%0hPa0V00:00:0000:00:0000:00:00
DL9RDZ-12026-09-01 00:09:3063.72705-22.0574069°20km/h18417m6.3m/s-47.2°C1.0%0hPa0V00:00:0000:00:0000:00:00
DL9RDZ-12026-09-01 00:09:1963.72689-22.0586779°26km/h18365m3.8m/s-47.4°C1.1%0hPa0V00:00:0000:00:0000:00:00
DL9RDZ-12026-09-01 00:09:0963.72679-22.0604094°37km/h18313m4.5m/s-47.0°C1.0%0hPa0V00:00:0000:00:0000:00:00
DL9RDZ-12026-09-01 00:08:5963.72668-22.0624381°38km/h18254m4.0m/s-47.0°C1.1%0hPa0V00:00:0000:00:0000:00:00
DL9RDZ-12026-09-01 00:08:4863.72657-22.0644581°35km/h18204m5.9m/s-47.1°C1.0%0hPa0V00:00:0000:00:0000:00:00
DL9RDZ-12026-09-01 00:08:3763.72629-22.0664168°29km/h18149m6.0m/s-47.1°C1.1%0hPa0V00:00:0000:00:0000:00:00
DL9RDZ-12026-09-01 00:08:2763.72584-22.0680561°29km/h18091m4.3m/s-46.8°C1.0%0hPa0V00:00:0000:00:0000:00:00
DL9RDZ-12026-09-01 00:08:1663.72545-22.0694063°26km/h18040m4.7m/s-47.0°C1.1%0hPa0V00:00:0000:00:0000:00:00
DL9RDZ-12026-09-01 00:08:0663.72511-22.0706274°24km/h17983m4.0m/s-47.3°C1.1%0hPa0V00:00:0000:00:0000:00:00
DL9RDZ-12026-09-01 00:07:5463.72490-22.0721086°22km/h17928m6.1m/s-47.1°C1.1%0hPa0V00:00:0000:00:0000:00:00
DL9RDZ-12026-09-01 00:07:4363.72475-22.0737569°27km/h17873m4.6m/s-46.8°C1.0%0hPa0V00:00:0000:00:0000:00:00
DL9RDZ-12026-09-01 00:07:3363.72466-22.0750274°26km/h17823m5.9m/s-46.5°C1.0%0hPa0V00:00:0000:00:0000:00:00
DL9RDZ-12026-09-01 00:07:2363.72454-22.0762796°22km/h17770m4.9m/s-46.3°C1.0%0hPa0V00:00:0000:00:0000:00:00
DL9RDZ-12026-09-01 00:07:1263.72457-22.0774889°22km/h17722m5.3m/s-46.1°C1.0%0hPa0V00:00:0000:00:0000:00:00
DL9RDZ-12026-09-01 00:06:5163.72443-22.0803383°29km/h17622m5.4m/s-46.9°C1.0%0hPa0V00:00:0000:00:0000:00:00
DL9RDZ-12026-09-01 00:06:4163.72431-22.0818778°22km/h17575m5.3m/s-47.0°C1.0%0hPa0V00:00:0000:00:0000:00:00
DL9RDZ-12026-09-01 00:06:3063.72397-22.0834360°27km/h17525m4.5m/s-47.1°C1.1%0hPa0V00:00:0000:00:0000:00:00
DL9RDZ-12026-09-01 00:06:2063.72364-22.0845254°26km/h17478m4.9m/s-47.0°C1.0%0hPa0V00:00:0000:00:0000:00:00
DL9RDZ-12026-09-01 00:06:1063.72346-22.0858365°22km/h17428m3.6m/s-47.1°C1.1%0hPa0V00:00:0000:00:0000:00:00
DL9RDZ-12026-09-01 00:05:5963.72336-22.0868394°18km/h17386m3.9m/s-47.2°C1.1%0hPa0V00:00:0000:00:0000:00:00
DL9RDZ-12026-09-01 00:05:4863.72347-22.08825107°24km/h17336m5.3m/s-46.9°C1.1%0hPa0V00:00:0000:00:0000:00:00
DL9RDZ-12026-09-01 00:05:3963.72362-22.08984104°29km/h17290m5.0m/s-46.7°C1.1%0hPa0V00:00:0000:00:0000:00:00
DL9RDZ-12026-09-01 00:05:2963.72376-22.0916898°33km/h17245m4.4m/s-46.6°C1.0%0hPa0V00:00:0000:00:0000:00:00
DL9RDZ-12026-09-01 00:05:2063.72384-22.0939297°38km/h17196m3.8m/s-46.5°C1.0%0hPa0V00:00:0000:00:0000:00:00
DL9RDZ-12026-09-01 00:05:0763.72375-22.0961683°46km/h17153m2.8m/s-46.5°C1.1%0hPa0V00:00:0000:00:0000:00:00
DL9RDZ-12026-09-01 00:04:5763.72350-22.0987371°38km/h17104m4.5m/s-46.4°C1.1%0hPa0V00:00:0000:00:0000:00:00
DL9RDZ-12026-09-01 00:04:4963.72317-22.1008465°37km/h17059m4.9m/s-46.3°C1.0%0hPa0V00:00:0000:00:0000:00:00
DL9RDZ-12026-09-01 00:04:3663.72280-22.1030070°35km/h17012m4.7m/s-46.3°C1.1%0hPa0V00:00:0000:00:0000:00:00
DL9RDZ-12026-09-01 00:04:2563.72234-22.1049070°40km/h16961m4.8m/s-46.3°C1.0%0hPa0V00:00:0000:00:0000:00:00
DL9RDZ-12026-09-01 00:04:1463.72196-22.1067669°27km/h16911m4.7m/s-46.9°C1.1%0hPa0V00:00:0000:00:0000:00:00
DL9RDZ-12026-09-01 00:03:5263.72166-22.1107681°35km/h16811m3.7m/s-47.0°C1.1%0hPa0V00:00:0000:00:0000:00:00
DL9RDZ-12026-09-01 00:03:4563.72143-22.1128570°35km/h16758m4.7m/s-47.3°C1.1%0hPa0V00:00:0000:00:0000:00:00
DL9RDZ-12026-09-01 00:03:4063.72100-22.1146358°31km/h16710m5.2m/s-46.9°C1.1%0hPa0V00:00:0000:00:0000:00:00
DL9RDZ-12026-09-01 00:03:3463.72051-22.1163152°35km/h16658m5.6m/s-46.9°C1.1%0hPa0V00:00:0000:00:0000:00:00
DL9RDZ-12026-09-01 00:03:2863.71997-22.1177038°29km/h16601m4.3m/s-46.6°C1.1%0hPa0V00:00:0000:00:0000:00:00
DL9RDZ-12026-09-01 00:03:1763.71955-22.1186944°20km/h16551m4.3m/s-46.4°C1.1%0hPa0V00:00:0000:00:0000:00:00
DL9RDZ-12026-09-01 00:03:0963.71912-22.1195038°18km/h16498m4.6m/s-46.2°C1.1%0hPa0V00:00:0000:00:0000:00:00
DL9RDZ-12026-09-01 00:02:4763.71875-22.1200352°16km/h16444m3.7m/s-46.0°C1.0%0hPa0V00:00:0000:00:0000:00:00
DL9RDZ-12026-09-01 00:02:3663.71855-22.1207365°13km/h16394m5.4m/s-45.9°C1.1%0hPa0V00:00:0000:00:0000:00:00
DL9RDZ-12026-09-01 00:02:1963.71850-22.1214993°15km/h16345m4.5m/s-45.8°C1.1%0hPa0V00:00:0000:00:0000:00:00
DL9RDZ-12026-09-01 00:02:0563.71846-22.1224184°13km/h16292m3.9m/s-45.8°C1.0%0hPa0V00:00:0000:00:0000:00:00
DL9RDZ-12026-09-01 00:01:5963.71872-22.12480107°31km/h16190m3.7m/s-45.9°C1.1%0hPa0V00:00:0000:00:0000:00:00
DL9RDZ-12026-09-01 00:01:4263.71886-22.12627102°26km/h16144m3.3m/s-45.8°C1.1%0hPa0V00:00:0000:00:0000:00:00
DL9RDZ-12026-09-01 00:01:2863.71890-22.1282089°31km/h16096m5.4m/s-46.2°C1.1%0hPa0V00:00:0000:00:0000:00:00
DL9RDZ-12026-09-01 00:01:1663.71891-22.1298590°33km/h16050m4.3m/s-46.2°C1.1%0hPa0V00:00:0000:00:0000:00:00
DL9RDZ-12026-09-01 00:00:5763.71860-22.1333874°26km/h15958m5.2m/s-46.4°C1.1%0hPa0V00:00:0000:00:0000:00:00
DL9RDZ-12026-09-01 00:00:4263.71847-22.1348268°26km/h15914m3.5m/s-46.3°C1.1%0hPa0V00:00:0000:00:0000:00:00
DL9RDZ-12026-09-01 00:00:3263.71840-22.1360378°27km/h15869m4.5m/s-46.2°C1.1%0hPa0V00:00:0000:00:0000:00:00
DL9RDZ-12026-09-01 00:00:1463.71844-22.1389997°26km/h15779m4.9m/s-46.3°C1.1%0hPa0V00:00:0000:00:0000:00:00
DL9RDZ-12026-08-31 23:59:5963.71864-22.14069103°29km/h15731m4.7m/s-46.2°C1.1%0hPa0V00:00:0000:00:0000:00:00
DL9RDZ-12026-08-31 23:59:4863.71882-22.14268100°35km/h15681m5.1m/s-46.3°C1.1%0hPa0V00:00:0000:00:0000:00:00
DL9RDZ-12026-08-31 23:59:3863.71896-22.14473106°38km/h15636m4.3m/s-46.4°C1.1%0hPa0V00:00:0000:00:0000:00:00
DL9RDZ-12026-08-31 23:59:2763.71908-22.1472896°46km/h15586m2.9m/s-46.6°C1.2%0hPa0V00:00:0000:00:0000:00:00
DL9RDZ-12026-08-31 23:59:1663.71916-22.1496185°35km/h15533m4.4m/s-46.4°C1.1%0hPa0V00:00:0000:00:0000:00:00
DL9RDZ-12026-08-31 23:59:0663.71915-22.1515097°29km/h15483m3.8m/s-46.2°C1.2%0hPa0V00:00:0000:00:0000:00:00
DL9RDZ-12026-08-31 23:58:5563.71915-22.15332104°29km/h15434m4.5m/s-46.2°C1.2%0hPa0V00:00:0000:00:0000:00:00
DL9RDZ-12026-08-31 23:58:4563.71925-22.15448107°20km/h15386m4.6m/s-46.2°C1.2%0hPa0V00:00:0000:00:0000:00:00
DL9RDZ-12026-08-31 23:58:3363.71947-22.15581106°24km/h15331m4.1m/s-46.2°C1.2%0hPa0V00:00:0000:00:0000:00:00
DL9RDZ-12026-08-31 23:58:1663.71975-22.1587094°35km/h15252m4.9m/s-46.7°C1.2%0hPa0V00:00:0000:00:0000:00:00
DL9RDZ-12026-08-31 23:58:0563.71988-22.16077100°31km/h15200m4.2m/s-46.8°C1.2%0hPa0V00:00:0000:00:0000:00:00
DL9RDZ-12026-08-31 23:57:5563.71992-22.1624185°35km/h15153m3.4m/s-47.2°C1.2%0hPa0V00:00:0000:00:0000:00:00
DL9RDZ-12026-08-31 23:57:4463.71983-22.1641992°33km/h15103m3.7m/s-47.6°C1.3%0hPa0V00:00:0000:00:0000:00:00
DL9RDZ-12026-08-31 23:57:3463.71965-22.1657671°26km/h15057m5.5m/s-47.4°C1.3%0hPa0V00:00:0000:00:0000:00:00
DL9RDZ-12026-08-31 23:57:2363.71953-22.1673276°24km/h15005m3.8m/s-47.0°C1.2%0hPa0V00:00:0000:00:0000:00:00
DL9RDZ-12026-08-31 23:57:1263.71949-22.1688792°29km/h14953m4.2m/s-46.7°C1.3%0hPa0V00:00:0000:00:0000:00:00
DL9RDZ-12026-08-31 23:57:0263.71951-22.17032100°26km/h14907m4.7m/s-46.5°C1.3%0hPa0V00:00:0000:00:0000:00:00
DL9RDZ-12026-08-31 23:56:5263.71962-22.17175105°20km/h14860m4.5m/s-46.6°C1.2%0hPa0V00:00:0000:00:0000:00:00
DL9RDZ-12026-08-31 23:56:4263.71985-22.17308119°31km/h14812m4.0m/s-46.8°C1.3%0hPa0V00:00:0000:00:0000:00:00
DL9RDZ-12026-08-31 23:56:3163.72014-22.17482111°31km/h14763m4.4m/s-46.8°C1.3%0hPa0V00:00:0000:00:0000:00:00
DL9RDZ-12026-08-31 23:56:2163.72032-22.1766697°37km/h14720m5.0m/s-46.8°C1.3%0hPa0V00:00:0000:00:0000:00:00
DL9RDZ-12026-08-31 23:56:1163.72041-22.1788592°38km/h14675m3.6m/s-46.6°C1.3%0hPa0V00:00:0000:00:0000:00:00
DL9RDZ-12026-08-31 23:56:0063.72043-22.1813892°42km/h14627m4.9m/s-46.4°C1.3%0hPa0V00:00:0000:00:0000:00:00
DL9RDZ-12026-08-31 23:55:4963.72032-22.1837980°38km/h14577m4.6m/s-46.2°C1.3%0hPa0V00:00:0000:00:0000:00:00
DL9RDZ-12026-08-31 23:55:3863.72014-22.1861980°38km/h14527m4.6m/s-45.8°C1.2%0hPa0V00:00:0000:00:0000:00:00
DL9RDZ-12026-08-31 23:55:2963.71985-22.1883176°38km/h14481m3.9m/s-45.6°C1.2%0hPa0V00:00:0000:00:0000:00:00
DL9RDZ-12026-08-31 23:55:1763.71959-22.1905677°42km/h14432m4.3m/s-45.8°C1.2%0hPa0V00:00:0000:00:0000:00:00
DL9RDZ-12026-08-31 23:55:0763.71941-22.1929485°38km/h14380m5.7m/s-45.7°C1.3%0hPa0V00:00:0000:00:0000:00:00
DL9RDZ-12026-08-31 23:54:5663.71928-22.1948780°31km/h14333m5.1m/s-45.8°C1.3%0hPa0V00:00:0000:00:0000:00:00
DL9RDZ-12026-08-31 23:54:3663.71888-22.1982870°29km/h14235m4.6m/s-45.9°C1.3%0hPa0V00:00:0000:00:0000:00:00
DL9RDZ-12026-08-31 23:54:2563.71878-22.1998790°29km/h14184m4.7m/s-45.8°C1.3%0hPa0V00:00:0000:00:0000:00:00
DL9RDZ-12026-08-31 23:54:1363.71872-22.2016985°26km/h14136m4.1m/s-45.7°C1.3%0hPa0V00:00:0000:00:0000:00:00
DL9RDZ-12026-08-31 23:54:0463.71867-22.2031481°29km/h14087m5.7m/s-45.5°C1.3%0hPa0V00:00:0000:00:0000:00:00
DL9RDZ-12026-08-31 23:53:5463.71858-22.2047382°35km/h14040m3.4m/s-45.7°C1.3%0hPa0V00:00:0000:00:0000:00:00
DL9RDZ-12026-08-31 23:53:4263.71849-22.2066480°31km/h13990m4.6m/s-45.6°C1.3%0hPa0V00:00:0000:00:0000:00:00
DL9RDZ-12026-08-31 23:53:3263.71844-22.2082497°26km/h13939m4.9m/s-45.2°C1.3%0hPa0V00:00:0000:00:0000:00:00
DL9RDZ-12026-08-31 23:53:2063.71840-22.2098489°26km/h13887m4.7m/s-45.2°C1.3%0hPa0V00:00:0000:00:0000:00:00
DL9RDZ-12026-08-31 23:53:1163.71841-22.2113990°27km/h13839m5.3m/s-45.4°C1.3%0hPa0V00:00:0000:00:0000:00:00
DL9RDZ-12026-08-31 23:52:5963.71847-22.21312100°29km/h13786m5.1m/s-45.6°C1.3%0hPa0V00:00:0000:00:0000:00:00
DL9RDZ-12026-08-31 23:52:5063.71856-22.2147998°31km/h13743m4.8m/s-45.3°C1.3%0hPa0V00:00:0000:00:0000:00:00
DL9RDZ-12026-08-31 23:52:3863.71873-22.21679108°33km/h13693m4.9m/s-45.2°C1.3%0hPa0V00:00:0000:00:0000:00:00
DL9RDZ-12026-08-31 23:52:2963.71880-22.2186695°37km/h13646m4.3m/s-45.3°C1.3%0hPa0V00:00:0000:00:0000:00:00
DL9RDZ-12026-08-31 23:52:1963.71886-22.2206889°33km/h13602m4.3m/s-45.1°C1.3%0hPa0V00:00:0000:00:0000:00:00
DL9RDZ-12026-08-31 23:52:0663.71865-22.2233273°40km/h13547m4.1m/s-45.5°C1.3%0hPa0V00:00:0000:00:0000:00:00
DL9RDZ-12026-08-31 23:51:4963.71836-22.2270993°37km/h13474m4.8m/s-45.2°C1.3%0hPa0V00:00:0000:00:0000:00:00
DL9RDZ-12026-08-31 23:51:3963.71842-22.2293589°33km/h13424m3.9m/s-44.9°C1.3%0hPa0V00:00:0000:00:0000:00:00
DL9RDZ-12026-08-31 23:51:2763.71851-22.23162102°37km/h13376m5.6m/s-44.8°C1.3%0hPa0V00:00:0000:00:0000:00:00
DL9RDZ-12026-08-31 23:51:1863.71871-22.23357109°35km/h13332m4.2m/s-44.8°C1.3%0hPa0V00:00:0000:00:0000:00:00
DL9RDZ-12026-08-31 23:51:0663.71894-22.23571100°33km/h13283m4.2m/s-45.0°C1.3%0hPa0V00:00:0000:00:0000:00:00
DL9RDZ-12026-08-31 23:50:5763.71912-22.23776100°37km/h13242m3.0m/s-45.2°C1.3%0hPa0V00:00:0000:00:0000:00:00
DL9RDZ-12026-08-31 23:50:4563.71927-22.24022101°44km/h13198m4.4m/s-45.5°C1.3%0hPa0V00:00:0000:00:0000:00:00
DL9RDZ-12026-08-31 23:50:3763.71939-22.2425890°38km/h13154m4.5m/s-46.3°C1.4%0hPa0V00:00:0000:00:0000:00:00
DL9RDZ-12026-08-31 23:50:3463.71941-22.2448393°40km/h13113m4.1m/s-46.5°C1.4%0hPa0V00:00:0000:00:0000:00:00
DL9RDZ-12026-08-31 23:50:1463.71938-22.2474186°38km/h13068m3.3m/s-46.5°C1.5%0hPa0V00:00:0000:00:0000:00:00
DL9RDZ-12026-08-31 23:50:0263.71933-22.2497392°35km/h13021m3.8m/s-46.2°C1.4%0hPa0V00:00:0000:00:0000:00:00
DL9RDZ-12026-08-31 23:49:5263.71940-22.2517795°35km/h12974m4.5m/s-46.2°C1.4%0hPa0V00:00:0000:00:0000:00:00
DL9RDZ-12026-08-31 23:49:4263.71958-22.25360108°33km/h12930m4.3m/s-46.0°C1.5%0hPa0V00:00:0000:00:0000:00:00
DL9RDZ-12026-08-31 23:49:2163.72025-22.25719114°35km/h12839m5.0m/s-45.6°C1.4%0hPa0V00:00:0000:00:0000:00:00
DL9RDZ-12026-08-31 23:49:1163.72075-22.25921120°37km/h12788m3.6m/s-45.3°C1.4%0hPa0V00:00:0000:00:0000:00:00
DL9RDZ-12026-08-31 23:49:0063.72116-22.26112119°37km/h12744m3.6m/s-45.4°C1.4%0hPa0V00:00:0000:00:0000:00:00
DL9RDZ-12026-08-31 23:48:5063.72155-22.26287109°33km/h12702m4.1m/s-45.5°C1.4%0hPa0V00:00:0000:00:0000:00:00
DL9RDZ-12026-08-31 23:48:4063.72184-22.26483114°37km/h12655m3.9m/s-45.7°C1.4%0hPa0V00:00:0000:00:0000:00:00
DL9RDZ-12026-08-31 23:48:2863.72222-22.26712111°40km/h12609m5.2m/s-46.0°C1.4%0hPa0V00:00:0000:00:0000:00:00
DL9RDZ-12026-08-31 23:48:1763.72262-22.26947114°42km/h12561m5.1m/s-46.2°C1.5%0hPa0V00:00:0000:00:0000:00:00
DL9RDZ-12026-08-31 23:48:0663.72312-22.27227113°47km/h12514m3.6m/s-46.5°C1.5%0hPa0V00:00:0000:00:0000:00:00
DL9RDZ-12026-08-31 23:47:5563.72355-22.27508105°44km/h12469m3.9m/s-46.4°C1.5%0hPa0V00:00:0000:00:0000:00:00
DL9RDZ-12026-08-31 23:47:4563.72380-22.27757105°42km/h12428m3.9m/s-46.4°C1.4%0hPa0V00:00:0000:00:0000:00:00
DL9RDZ-12026-08-31 23:47:3463.72400-22.28006100°40km/h12382m3.9m/s-46.7°C1.5%0hPa0V00:00:0000:00:0000:00:00
DL9RDZ-12026-08-31 23:47:2463.72420-22.28221104°35km/h12338m4.5m/s-47.0°C1.6%0hPa0V00:00:0000:00:0000:00:00
DL9RDZ-12026-08-31 23:47:1463.72443-22.28473105°46km/h12288m3.8m/s-46.8°C1.6%0hPa0V00:00:0000:00:0000:00:00
DL9RDZ-12026-08-31 23:47:0263.72480-22.28714105°38km/h12237m5.5m/s-46.5°C1.6%0hPa0V00:00:0000:00:0000:00:00
DL9RDZ-12026-08-31 23:46:5163.72503-22.28927107°33km/h12185m4.2m/s-46.4°C1.5%0hPa0V00:00:0000:00:0000:00:00
DL9RDZ-12026-08-31 23:46:4163.72535-22.29154107°38km/h12137m4.5m/s-46.5°C1.5%0hPa0V00:00:0000:00:0000:00:00
DL9RDZ-12026-08-31 23:46:2963.72566-22.29394109°44km/h12089m5.1m/s-47.0°C1.6%0hPa0V00:00:0000:00:0000:00:00
DL9RDZ-12026-08-31 23:46:1963.72605-22.29615109°44km/h12044m4.9m/s-46.9°C1.6%0hPa0V00:00:0000:00:0000:00:00
DL9RDZ-12026-08-31 23:46:0963.72632-22.29845109°38km/h12002m3.7m/s-46.7°C1.6%0hPa0V00:00:0000:00:0000:00:00
DL9RDZ-12026-08-31 23:45:5863.72664-22.30077108°35km/h11954m4.9m/s-46.6°C1.6%0hPa0V00:00:0000:00:0000:00:00
DL9RDZ-12026-08-31 23:45:4963.72699-22.30263110°38km/h11908m4.7m/s-46.8°C1.7%0hPa0V00:00:0000:00:0000:00:00
DL9RDZ-12026-08-31 23:45:3863.72739-22.30457121°37km/h11865m4.3m/s-47.1°C1.7%0hPa0V00:00:0000:00:0000:00:00
DL9RDZ-12026-08-31 23:45:2963.72777-22.30634115°37km/h11821m4.7m/s-47.1°C1.7%0hPa0V00:00:0000:00:0000:00:00
DL9RDZ-12026-08-31 23:45:1863.72823-22.30869109°40km/h11773m3.7m/s-47.2°C1.8%0hPa0V00:00:0000:00:0000:00:00
DL9RDZ-12026-08-31 23:45:0763.72868-22.31120116°46km/h11726m4.3m/s-47.4°C1.8%0hPa0V00:00:0000:00:0000:00:00
DL9RDZ-12026-08-31 23:44:4763.72939-22.31555108°37km/h11641m4.1m/s-47.3°C1.9%0hPa0V00:00:0000:00:0000:00:00
DL9RDZ-12026-08-31 23:44:3663.72971-22.31763112°40km/h11598m4.9m/s-47.2°C2.0%0hPa0V00:00:0000:00:0000:00:00
DL9RDZ-12026-08-31 23:44:2563.73018-22.31986121°38km/h11552m3.8m/s-47.8°C2.2%0hPa0V00:00:0000:00:0000:00:00
DL9RDZ-12026-08-31 23:44:1463.73080-22.32213126°47km/h11505m4.0m/s-48.2°C2.5%0hPa0V00:00:0000:00:0000:00:00
DL9RDZ-12026-08-31 23:44:0463.73149-22.32440124°46km/h11459m4.5m/s-49.1°C2.6%0hPa0V00:00:0000:00:0000:00:00
DL9RDZ-12026-08-31 23:43:5363.73208-22.32672121°49km/h11416m3.6m/s-49.3°C2.8%0hPa0V00:00:0000:00:0000:00:00
DL9RDZ-12026-08-31 23:43:4363.73280-22.32904126°47km/h11375m4.5m/s-49.6°C3.0%0hPa0V00:00:0000:00:0000:00:00
DL9RDZ-12026-08-31 23:43:3263.73362-22.33131132°49km/h11329m4.8m/s-49.5°C3.2%0hPa0V00:00:0000:00:0000:00:00
DL9RDZ-12026-08-31 23:43:1163.73545-22.33580133°53km/h11234m3.4m/s-50.1°C3.9%0hPa0V00:00:0000:00:0000:00:00
DL9RDZ-12026-08-31 23:42:5863.73632-22.33845125°44km/h11190m4.1m/s-50.5°C4.8%0hPa0V00:00:0000:00:0000:00:00
DL9RDZ-12026-08-31 23:42:4863.73692-22.34085120°51km/h11150m2.8m/s-51.1°C6.0%0hPa0V00:00:0000:00:0000:00:00
DL9RDZ-12026-08-31 23:42:3763.73765-22.34335125°47km/h11107m4.0m/s-51.4°C7.1%0hPa0V00:00:0000:00:0000:00:00
DL9RDZ-12026-08-31 23:42:2763.73845-22.34585124°51km/h11061m3.3m/s-51.6°C8.5%0hPa0V00:00:0000:00:0000:00:00
DL9RDZ-12026-08-31 23:42:1563.73914-22.34858115°46km/h11015m3.6m/s-52.5°C11.1%0hPa0V00:00:0000:00:0000:00:00
DL9RDZ-12026-08-31 23:42:0463.73965-22.35103117°42km/h10969m5.1m/s-53.1°C13.9%0hPa0V00:00:0000:00:0000:00:00
DL9RDZ-12026-08-31 23:41:5363.74027-22.35337126°46km/h10923m4.9m/s-54.0°C16.9%0hPa0V00:00:0000:00:0000:00:00
DL9RDZ-12026-08-31 23:41:4263.74115-22.35570139°47km/h10879m4.3m/s-54.4°C18.4%0hPa0V00:00:0000:00:0000:00:00
DL9RDZ-12026-08-31 23:41:3163.74205-22.35784132°46km/h10833m3.3m/s-54.9°C19.8%0hPa0V00:00:0000:00:0000:00:00
DL9RDZ-12026-08-31 23:41:2163.74277-22.35980134°44km/h10790m4.8m/s-54.8°C20.4%0hPa0V00:00:0000:00:0000:00:00
DL9RDZ-12026-08-31 23:40:5763.74449-22.36390138°42km/h10685m4.8m/s-54.3°C22.2%0hPa0V00:00:0000:00:0000:00:00
DL9RDZ-12026-08-31 23:40:4663.74542-22.36577142°49km/h10641m4.4m/s-54.6°C24.6%0hPa0V00:00:0000:00:0000:00:00
DL9RDZ-12026-08-31 23:40:3663.74636-22.36773137°51km/h10599m3.8m/s-55.0°C27.0%0hPa0V00:00:0000:00:0000:00:00
DL9RDZ-12026-08-31 23:40:2663.74732-22.36984138°60km/h10554m4.8m/s-55.2°C28.8%0hPa0V00:00:0000:00:0000:00:00
DL9RDZ-12026-08-31 23:40:1563.74851-22.37238137°60km/h10506m3.8m/s-55.3°C29.8%0hPa0V00:00:0000:00:0000:00:00
DL9RDZ-12026-08-31 23:40:0563.74960-22.37479138°60km/h10464m4.3m/s-55.4°C31.2%0hPa0V00:00:0000:00:0000:00:00
DL9RDZ-12026-08-31 23:39:5163.75109-22.37827136°62km/h10402m5.0m/s-55.4°C31.4%0hPa0V00:00:0000:00:0000:00:00
DL9RDZ-12026-08-31 23:39:4163.75222-22.38065138°58km/h10361m4.2m/s-55.2°C31.7%0hPa0V00:00:0000:00:0000:00:00
DL9RDZ-12026-08-31 23:39:3163.75332-22.38287138°57km/h10320m3.7m/s-55.2°C32.4%0hPa0V00:00:0000:00:0000:00:00
DL9RDZ-12026-08-31 23:39:2063.75455-22.38520142°60km/h10274m4.4m/s-54.9°C33.9%0hPa0V00:00:0000:00:0000:00:00
DL9RDZ-12026-08-31 23:39:0463.75640-22.38880144°64km/h10208m4.3m/s-54.9°C37.5%0hPa0V00:00:0000:00:0000:00:00
DL9RDZ-12026-08-31 23:38:5463.75765-22.39112141°62km/h10167m4.2m/s-55.0°C40.2%0hPa0V00:00:0000:00:0000:00:00
DL9RDZ-12026-08-31 23:38:4363.75893-22.39360142°60km/h10121m3.9m/s-55.0°C43.3%0hPa0V00:00:0000:00:0000:00:00
DL9RDZ-12026-08-31 23:38:3363.76017-22.39575142°64km/h10080m3.6m/s-54.8°C45.4%0hPa0V00:00:0000:00:0000:00:00
DL9RDZ-12026-08-31 23:38:2263.76154-22.39819145°58km/h10034m3.6m/s-55.2°C50.5%0hPa0V00:00:0000:00:0000:00:00
DL9RDZ-12026-08-31 23:38:1163.76295-22.40036148°60km/h9989m4.3m/s-55.1°C51.7%0hPa0V00:00:0000:00:0000:00:00
DL9RDZ-12026-08-31 23:38:0163.76427-22.40211152°62km/h9945m4.6m/s-54.9°C52.4%0hPa0V00:00:0000:00:0000:00:00
DL9RDZ-12026-08-31 23:37:5063.76583-22.40391154°66km/h9897m3.7m/s-54.5°C53.7%0hPa0V00:00:0000:00:0000:00:00
DL9RDZ-12026-08-31 23:37:2963.76892-22.40731157°66km/h9811m3.9m/s-54.0°C58.9%0hPa0V00:00:0000:00:0000:00:00
DL9RDZ-12026-08-31 23:37:1863.77050-22.40917153°64km/h9767m3.8m/s-53.6°C57.3%0hPa0V00:00:0000:00:0000:00:00
DL9RDZ-12026-08-31 23:37:0863.77192-22.41082154°60km/h9726m4.2m/s-53.4°C55.9%0hPa0V00:00:0000:00:0000:00:00
DL9RDZ-12026-08-31 23:36:5763.77356-22.41268155°66km/h9680m3.9m/s-53.1°C56.5%0hPa0V00:00:0000:00:0000:00:00
DL9RDZ-12026-08-31 23:36:4663.77517-22.41449153°64km/h9634m3.9m/s-52.9°C57.9%0hPa0V00:00:0000:00:0000:00:00
DL9RDZ-12026-08-31 23:36:3563.77685-22.41642154°69km/h9589m3.7m/s-52.6°C57.8%0hPa0V00:00:0000:00:0000:00:00
DL9RDZ-12026-08-31 23:36:2563.77840-22.41824154°75km/h9550m4.0m/s-52.3°C56.6%0hPa0V00:00:0000:00:0000:00:00
DL9RDZ-12026-08-31 23:36:1463.78016-22.42023154°73km/h9505m4.2m/s-52.0°C55.9%0hPa0V00:00:0000:00:0000:00:00
DL9RDZ-12026-08-31 23:36:0363.78194-22.42219154°73km/h9459m4.6m/s-51.9°C53.3%0hPa0V00:00:0000:00:0000:00:00
DL9RDZ-12026-08-31 23:35:5363.78363-22.42402156°68km/h9414m5.0m/s-51.7°C48.6%0hPa0V00:00:0000:00:0000:00:00
DL9RDZ-12026-08-31 23:35:4163.78529-22.42585154°68km/h9367m4.5m/s-51.2°C49.8%0hPa0V00:00:0000:00:0000:00:00
DL9RDZ-12026-08-31 23:35:3163.78673-22.42747155°62km/h9325m3.5m/s-50.9°C48.5%0hPa0V00:00:0000:00:0000:00:00
DL9RDZ-12026-08-31 23:35:2163.78820-22.42907155°64km/h9284m4.0m/s-50.6°C46.3%0hPa0V00:00:0000:00:0000:00:00
DL9RDZ-12026-08-31 23:35:1163.78984-22.43093154°68km/h9240m3.6m/s-50.2°C43.0%0hPa0V00:00:0000:00:0000:00:00
DL9RDZ-12026-08-31 23:34:5963.79149-22.43286155°66km/h9196m3.9m/s-49.8°C43.0%0hPa0V00:00:0000:00:0000:00:00
DL9RDZ-12026-08-31 23:34:3463.79513-22.43703154°64km/h9095m3.4m/s-49.2°C44.8%0hPa0V00:00:0000:00:0000:00:00
DL9RDZ-12026-08-31 23:34:2363.79671-22.43894152°64km/h9052m3.4m/s-48.9°C44.8%0hPa0V00:00:0000:00:0000:00:00
DL9RDZ-12026-08-31 23:34:1263.79829-22.44073153°64km/h9008m3.8m/s-48.6°C46.7%0hPa0V00:00:0000:00:0000:00:00
DL9RDZ-12026-08-31 23:34:0363.79971-22.44243154°64km/h8968m4.2m/s-48.4°C46.6%0hPa0V00:00:0000:00:0000:00:00
DL9RDZ-12026-08-31 23:33:5263.80117-22.44413152°66km/h8927m3.1m/s-48.1°C47.1%0hPa0V00:00:0000:00:0000:00:00
DL9RDZ-12026-08-31 23:33:4163.80273-22.44613154°68km/h8884m3.6m/s-47.8°C47.1%0hPa0V00:00:0000:00:0000:00:00
DL9RDZ-12026-08-31 23:33:3163.80424-22.44792152°68km/h8844m3.2m/s-47.4°C48.0%0hPa0V00:00:0000:00:0000:00:00
DL9RDZ-12026-08-31 23:33:2263.80577-22.44968152°64km/h8805m4.5m/s-47.2°C49.6%0hPa0V00:00:0000:00:0000:00:00
DL9RDZ-12026-08-31 23:32:5863.80916-22.45389153°66km/h8713m3.0m/s-46.6°C52.0%0hPa0V00:00:0000:00:0000:00:00
DL9RDZ-12026-08-31 23:32:4863.81063-22.45573155°66km/h8674m3.9m/s-46.3°C52.0%0hPa0V00:00:0000:00:0000:00:00
DL9RDZ-12026-08-31 23:32:3763.81220-22.45753156°64km/h8630m3.9m/s-46.0°C50.5%0hPa0V00:00:0000:00:0000:00:00
DL9RDZ-12026-08-31 23:32:2763.81382-22.45936155°66km/h8585m5.0m/s-45.7°C50.2%0hPa0V00:00:0000:00:0000:00:00
DL9RDZ-12026-08-31 23:32:1563.81540-22.46121153°64km/h8539m3.9m/s-45.4°C51.5%0hPa0V00:00:0000:00:0000:00:00
DL9RDZ-12026-08-31 23:32:0463.81693-22.46311152°60km/h8495m4.2m/s-45.3°C50.3%0hPa0V00:00:0000:00:0000:00:00
DL9RDZ-12026-08-31 23:31:5463.81827-22.46480155°62km/h8454m3.2m/s-44.9°C48.7%0hPa0V00:00:0000:00:0000:00:00
DL9RDZ-12026-08-31 23:31:4463.81969-22.46624157°58km/h8412m4.5m/s-44.8°C50.9%0hPa0V00:00:0000:00:0000:00:00
DL9RDZ-12026-08-31 23:31:2463.82279-22.46955155°68km/h8322m3.9m/s-44.2°C50.5%0hPa0V00:00:0000:00:0000:00:00
DL9RDZ-12026-08-31 23:31:1363.82425-22.47116153°62km/h8282m3.5m/s-43.8°C49.0%0hPa0V00:00:0000:00:0000:00:00
DL9RDZ-12026-08-31 23:31:0363.82569-22.47281155°64km/h8239m4.0m/s-43.6°C49.9%0hPa0V00:00:0000:00:0000:00:00
DL9RDZ-12026-08-31 23:30:5263.82729-22.47455154°64km/h8192m3.9m/s-43.2°C52.6%0hPa0V00:00:0000:00:0000:00:00
DL9RDZ-12026-08-31 23:30:3963.82912-22.47666153°64km/h8137m3.6m/s-42.8°C52.2%0hPa0V00:00:0000:00:0000:00:00
DL9RDZ-12026-08-31 23:30:2963.83053-22.47823155°60km/h8095m3.1m/s-42.5°C54.7%0hPa0V00:00:0000:00:0000:00:00
DL9RDZ-12026-08-31 23:30:1863.83208-22.47993157°64km/h8047m4.9m/s-42.1°C55.2%0hPa0V00:00:0000:00:0000:00:00
DL9RDZ-12026-08-31 23:30:0863.83355-22.48146156°66km/h8004m4.3m/s-41.9°C56.0%0hPa0V00:00:0000:00:0000:00:00
DL9RDZ-12026-08-31 23:29:5763.83521-22.48315156°66km/h7956m4.3m/s-41.7°C58.9%0hPa0V00:00:0000:00:0000:00:00
DL9RDZ-12026-08-31 23:29:4763.83665-22.48472155°64km/h7913m3.9m/s-41.4°C58.7%0hPa0V00:00:0000:00:0000:00:00
DL9RDZ-12026-08-31 23:29:3763.83805-22.48629155°64km/h7869m3.6m/s-41.0°C57.3%0hPa0V00:00:0000:00:0000:00:00
DL9RDZ-12026-08-31 23:29:2663.83962-22.48804155°64km/h7821m4.9m/s-40.7°C63.2%0hPa0V00:00:0000:00:0000:00:00
DL9RDZ-12026-08-31 23:29:1663.84105-22.48969153°64km/h7778m5.3m/s-40.4°C63.4%0hPa0V00:00:0000:00:0000:00:00
DL9RDZ-12026-08-31 23:29:0563.84261-22.49153151°66km/h7732m4.6m/s-40.0°C63.4%0hPa0V00:00:0000:00:0000:00:00
DL9RDZ-12026-08-31 23:28:4463.84559-22.49532151°62km/h7645m4.1m/s-39.2°C54.3%0hPa0V00:00:0000:00:0000:00:00
DL9RDZ-12026-08-31 23:28:3363.84716-22.49728151°66km/h7601m3.6m/s-38.8°C53.4%0hPa0V00:00:0000:00:0000:00:00
DL9RDZ-12026-08-31 23:28:2263.84874-22.49916152°62km/h7553m4.2m/s-38.3°C52.0%0hPa0V00:00:0000:00:0000:00:00
DL9RDZ-12026-08-31 23:28:1263.85015-22.50086153°64km/h7512m5.0m/s-38.0°C52.2%0hPa0V00:00:0000:00:0000:00:00
DL9RDZ-12026-08-31 23:28:0163.85164-22.50264152°60km/h7466m4.3m/s-37.7°C52.8%0hPa0V00:00:0000:00:0000:00:00
DL9RDZ-12026-08-31 23:27:5163.85300-22.50432151°60km/h7424m3.5m/s-37.3°C54.9%0hPa0V00:00:0000:00:0000:00:00
DL9RDZ-12026-08-31 23:27:4163.85436-22.50614150°62km/h7382m3.6m/s-37.1°C56.2%0hPa0V00:00:0000:00:0000:00:00
DL9RDZ-12026-08-31 23:27:2063.85714-22.50965152°62km/h7296m4.4m/s-36.4°C55.4%0hPa0V00:00:0000:00:0000:00:00
DL9RDZ-12026-08-31 23:27:1063.85847-22.51125155°60km/h7253m3.7m/s-36.1°C56.0%0hPa0V00:00:0000:00:0000:00:00
DL9RDZ-12026-08-31 23:26:5963.85995-22.51303150°60km/h7207m4.2m/s-35.8°C55.9%0hPa0V00:00:0000:00:0000:00:00
DL9RDZ-12026-08-31 23:26:4863.86139-22.51503148°60km/h7162m4.2m/s-35.5°C56.1%0hPa0V00:00:0000:00:0000:00:00
DL9RDZ-12026-08-31 23:26:3863.86268-22.51690147°60km/h7121m4.7m/s-35.3°C60.6%0hPa0V00:00:0000:00:0000:00:00
DL9RDZ-12026-08-31 23:26:2763.86408-22.51904148°60km/h7075m4.0m/s-35.0°C65.5%0hPa0V00:00:0000:00:0000:00:00
DL9RDZ-12026-08-31 23:26:1663.86546-22.52118146°60km/h7029m3.9m/s-34.6°C67.2%0hPa0V00:00:0000:00:0000:00:00
DL9RDZ-12026-08-31 23:26:0563.86688-22.52314148°58km/h6983m3.0m/s-34.2°C65.7%0hPa0V00:00:0000:00:0000:00:00
DL9RDZ-12026-08-31 23:25:5563.86816-22.52502151°62km/h6942m3.6m/s-33.9°C62.0%0hPa0V00:00:0000:00:0000:00:00
DL9RDZ-12026-08-31 23:25:4563.86945-22.52682149°62km/h6900m3.8m/s-33.5°C60.6%0hPa0V00:00:0000:00:0000:00:00
DL9RDZ-12026-08-31 23:25:3463.87084-22.52881148°58km/h6853m3.5m/s-33.2°C62.4%0hPa0V00:00:0000:00:0000:00:00
DL9RDZ-12026-08-31 23:25:2363.87219-22.53070149°55km/h6808m4.4m/s-32.8°C62.3%0hPa0V00:00:0000:00:0000:00:00
DL9RDZ-12026-08-31 23:25:1263.87346-22.53259148°58km/h6763m4.2m/s-32.5°C61.9%0hPa0V00:00:0000:00:0000:00:00
DL9RDZ-12026-08-31 23:25:0163.87471-22.53439150°53km/h6716m3.4m/s-32.1°C62.7%0hPa0V00:00:0000:00:0000:00:00
DL9RDZ-12026-08-31 23:24:5163.87586-22.53602147°55km/h6672m3.7m/s-31.8°C62.4%0hPa0V00:00:0000:00:0000:00:00
DL9RDZ-12026-08-31 23:24:4063.87714-22.53780150°53km/h6626m3.5m/s-31.5°C63.1%0hPa0V00:00:0000:00:0000:00:00
DL9RDZ-12026-08-31 23:24:3063.87828-22.53953148°53km/h6586m3.2m/s-31.2°C64.0%0hPa0V00:00:0000:00:0000:00:00
DL9RDZ-12026-08-31 23:24:1963.87951-22.54121150°51km/h6540m3.3m/s-31.1°C67.7%0hPa0V00:00:0000:00:0000:00:00
DL9RDZ-12026-08-31 23:24:0963.88064-22.54271153°51km/h6498m4.2m/s-30.9°C68.5%0hPa0V00:00:0000:00:0000:00:00
DL9RDZ-12026-08-31 23:23:5863.88192-22.54430155°53km/h6450m2.8m/s-30.6°C67.7%0hPa0V00:00:0000:00:0000:00:00
DL9RDZ-12026-08-31 23:23:4763.88317-22.54587150°53km/h6402m3.5m/s-30.1°C66.0%0hPa0V00:00:0000:00:0000:00:00
DL9RDZ-12026-08-31 23:23:3763.88431-22.54723154°47km/h6353m4.6m/s-29.7°C64.7%0hPa0V00:00:0000:00:0000:00:00
DL9RDZ-12026-08-31 23:23:1963.88630-22.54962150°51km/h6276m3.6m/s-29.4°C66.0%0hPa0V00:00:0000:00:0000:00:00
DL9RDZ-12026-08-31 23:23:0863.88751-22.55129148°49km/h6230m4.0m/s-29.1°C63.2%0hPa0V00:00:0000:00:0000:00:00
DL9RDZ-12026-08-31 23:22:5763.88862-22.55297148°47km/h6182m4.0m/s-28.8°C62.3%0hPa0V00:00:0000:00:0000:00:00
DL9RDZ-12026-08-31 23:22:4763.88964-22.55431151°46km/h6140m4.2m/s-28.5°C62.5%0hPa0V00:00:0000:00:0000:00:00
DL9RDZ-12026-08-31 23:22:3663.89077-22.55579149°46km/h6094m3.6m/s-28.2°C61.3%0hPa0V00:00:0000:00:0000:00:00
DL9RDZ-12026-08-31 23:22:2663.89180-22.55716149°46km/h6050m3.2m/s-27.9°C61.5%0hPa0V00:00:0000:00:0000:00:00
DL9RDZ-12026-08-31 23:22:1563.89289-22.55880150°49km/h6001m4.6m/s-27.7°C60.4%0hPa0V00:00:0000:00:0000:00:00
DL9RDZ-12026-08-31 23:22:0463.89393-22.56036148°44km/h5953m3.7m/s-27.4°C61.1%0hPa0V00:00:0000:00:0000:00:00
DL9RDZ-12026-08-31 23:21:5363.89502-22.56183153°46km/h5906m3.3m/s-27.0°C59.9%0hPa0V00:00:0000:00:0000:00:00
DL9RDZ-12026-08-31 23:21:4363.89598-22.56318148°44km/h5863m4.1m/s-26.7°C58.2%0hPa0V00:00:0000:00:0000:00:00
DL9RDZ-12026-08-31 23:21:3363.89688-22.56451148°40km/h5818m5.2m/s-26.4°C59.3%0hPa0V00:00:0000:00:0000:00:00
DL9RDZ-12026-08-31 23:21:2263.89786-22.56615147°44km/h5767m4.1m/s-26.0°C59.0%0hPa0V00:00:0000:00:0000:00:00
DL9RDZ-12026-08-31 23:21:1263.89882-22.56754148°44km/h5724m3.3m/s-25.8°C59.5%0hPa0V00:00:0000:00:0000:00:00
DL9RDZ-12026-08-31 23:21:0263.89977-22.56890149°46km/h5681m3.8m/s-25.5°C61.1%0hPa0V00:00:0000:00:0000:00:00
DL9RDZ-12026-08-31 23:20:5163.90083-22.57038147°46km/h5635m5.0m/s-25.2°C58.0%0hPa0V00:00:0000:00:0000:00:00
DL9RDZ-12026-08-31 23:20:3763.90212-22.57238148°44km/h5577m3.9m/s-24.9°C59.3%0hPa0V00:00:0000:00:0000:00:00
DL9RDZ-12026-08-31 23:20:2663.90312-22.57397145°46km/h5530m2.3m/s-24.7°C60.5%0hPa0V00:00:0000:00:0000:00:00
DL9RDZ-12026-08-31 23:20:1763.90403-22.57545143°42km/h5489m4.8m/s-24.4°C59.5%0hPa0V00:00:0000:00:0000:00:00
DL9RDZ-12026-08-31 23:20:0663.90491-22.57685146°46km/h5451m3.5m/s-24.2°C60.4%0hPa0V00:00:0000:00:0000:00:00
DL9RDZ-12026-08-31 23:19:5563.90591-22.57838151°44km/h5406m3.2m/s-24.0°C60.0%0hPa0V00:00:0000:00:0000:00:00
DL9RDZ-12026-08-31 23:19:3463.90777-22.58124150°42km/h5324m2.5m/s-23.6°C60.6%0hPa0V00:00:0000:00:0000:00:00
DL9RDZ-12026-08-31 23:19:2363.90872-22.58278147°40km/h5284m3.3m/s-23.3°C60.3%0hPa0V00:00:0000:00:0000:00:00
DL9RDZ-12026-08-31 23:19:1263.90964-22.58422145°42km/h5242m4.8m/s-23.0°C58.8%0hPa0V00:00:0000:00:0000:00:00
DL9RDZ-12026-08-31 23:19:0163.91055-22.58559145°38km/h5199m5.2m/s-22.8°C59.1%0hPa0V00:00:0000:00:0000:00:00
DL9RDZ-12026-08-31 23:18:5063.91149-22.58702149°44km/h5155m2.9m/s-22.6°C61.2%0hPa0V00:00:0000:00:0000:00:00
DL9RDZ-12026-08-31 23:18:3963.91244-22.58845150°42km/h5112m3.2m/s-22.6°C63.8%0hPa0V00:00:0000:00:0000:00:00
DL9RDZ-12026-08-31 23:18:2863.91340-22.58965157°42km/h5070m3.9m/s-22.2°C61.2%0hPa0V00:00:0000:00:0000:00:00
DL9RDZ-12026-08-31 23:18:1763.91438-22.59087155°40km/h5028m3.8m/s-21.9°C58.4%0hPa0V00:00:0000:00:0000:00:00
DL9RDZ-12026-08-31 23:18:0763.91535-22.59219149°44km/h4985m3.4m/s-21.5°C56.2%0hPa0V00:00:0000:00:0000:00:00
DL9RDZ-12026-08-31 23:17:5563.91630-22.59346147°40km/h4944m4.2m/s-21.4°C49.2%0hPa0V00:00:0000:00:0000:00:00
DL9RDZ-12026-08-31 23:17:4563.91713-22.59486139°37km/h4908m4.4m/s-21.3°C41.5%0hPa0V00:00:0000:00:0000:00:00
DL9RDZ-12026-08-31 23:17:3463.91798-22.59623147°37km/h4868m4.0m/s-21.1°C37.9%0hPa0V00:00:0000:00:0000:00:00
DL9RDZ-12026-08-31 23:17:2463.91882-22.59747152°38km/h4828m5.1m/s-20.9°C31.2%0hPa0V00:00:0000:00:0000:00:00
DL9RDZ-12026-08-31 23:17:1363.91977-22.59878147°37km/h4786m2.8m/s-20.7°C28.4%0hPa0V00:00:0000:00:0000:00:00
DL9RDZ-12026-08-31 23:17:0363.92060-22.59998150°40km/h4747m3.2m/s-20.5°C27.2%0hPa0V00:00:0000:00:0000:00:00
DL9RDZ-12026-08-31 23:16:5363.92137-22.60124147°38km/h4709m2.5m/s-20.2°C28.7%0hPa0V00:00:0000:00:0000:00:00
DL9RDZ-12026-08-31 23:16:4263.92222-22.60261157°35km/h4663m3.8m/s-19.8°C28.1%0hPa0V00:00:0000:00:0000:00:00
DL9RDZ-12026-08-31 23:16:3263.92298-22.60380149°37km/h4621m3.9m/s-19.6°C27.4%0hPa0V00:00:0000:00:0000:00:00
DL9RDZ-12026-08-31 23:16:2163.92385-22.60496154°37km/h4574m4.8m/s-19.4°C30.0%0hPa0V00:00:0000:00:0000:00:00
DL9RDZ-12026-08-31 23:16:1063.92475-22.60600154°38km/h4532m2.5m/s-19.3°C30.5%0hPa0V00:00:0000:00:0000:00:00
DL9RDZ-12026-08-31 23:15:5963.92568-22.60726149°38km/h4489m5.0m/s-19.1°C29.8%0hPa0V00:00:0000:00:0000:00:00
DL9RDZ-12026-08-31 23:15:4863.92660-22.60862146°38km/h4446m3.6m/s-18.8°C29.8%0hPa0V00:00:0000:00:0000:00:00
DL9RDZ-12026-08-31 23:15:3763.92750-22.60964152°38km/h4397m4.4m/s-18.6°C31.1%0hPa0V00:00:0000:00:0000:00:00
DL9RDZ-12026-08-31 23:15:2763.92840-22.61080152°37km/h4351m4.3m/s-18.5°C34.6%0hPa0V00:00:0000:00:0000:00:00
DL9RDZ-12026-08-31 23:15:1563.92924-22.61189153°31km/h4304m5.2m/s-18.3°C35.4%0hPa0V00:00:0000:00:0000:00:00
DL9RDZ-12026-08-31 23:15:0463.92999-22.61292159°31km/h4254m3.8m/s-18.0°C33.7%0hPa0V00:00:0000:00:0000:00:00
DL9RDZ-12026-08-31 23:14:5063.93100-22.61405154°33km/h4196m2.5m/s-17.7°C33.0%0hPa0V00:00:0000:00:0000:00:00
DL9RDZ-12026-08-31 23:14:4063.93173-22.61486155°37km/h4157m4.4m/s-17.6°C39.1%0hPa0V00:00:0000:00:0000:00:00
DL9RDZ-12026-08-31 23:14:2963.93260-22.61580149°31km/h4112m5.6m/s-17.4°C41.6%0hPa0V00:00:0000:00:0000:00:00
DL9RDZ-12026-08-31 23:14:1863.93343-22.61692152°37km/h4067m4.2m/s-17.4°C42.0%0hPa0V00:00:0000:00:0000:00:00
DL9RDZ-12026-08-31 23:14:0763.93423-22.61783151°33km/h4021m3.9m/s-17.7°C68.2%0hPa0V00:00:0000:00:0000:00:00
DL9RDZ-12026-08-31 23:13:5663.93493-22.61886154°27km/h3971m5.1m/s-17.4°C69.5%0hPa0V00:00:0000:00:0000:00:00
DL9RDZ-12026-08-31 23:13:4563.93557-22.61969153°27km/h3924m4.8m/s-17.0°C70.8%0hPa0V00:00:0000:00:0000:00:00
DL9RDZ-12026-08-31 23:13:3563.93618-22.62045153°27km/h3881m4.9m/s-16.7°C71.6%0hPa0V00:00:0000:00:0000:00:00
DL9RDZ-12026-08-31 23:13:2563.93677-22.62113154°27km/h3839m3.8m/s-16.2°C59.9%0hPa0V00:00:0000:00:0000:00:00
DL9RDZ-12026-08-31 23:13:1463.93737-22.62177164°24km/h3792m3.6m/s-15.8°C56.3%0hPa0V00:00:0000:00:0000:00:00
DL9RDZ-12026-08-31 23:13:0463.93795-22.62239161°26km/h3747m3.3m/s-15.3°C50.6%0hPa0V00:00:0000:00:0000:00:00
DL9RDZ-12026-08-31 23:12:5363.93865-22.62312153°26km/h3697m3.3m/s-14.9°C44.5%0hPa0V00:00:0000:00:0000:00:00
DL9RDZ-12026-08-31 23:12:4263.93929-22.62391155°26km/h3648m4.3m/s-14.7°C58.1%0hPa0V00:00:0000:00:0000:00:00
DL9RDZ-12026-08-31 23:12:3263.93994-22.62478148°33km/h3605m4.6m/s-14.5°C51.1%0hPa0V00:00:0000:00:0000:00:00
DL9RDZ-12026-08-31 23:12:2263.94051-22.62569154°26km/h3565m4.5m/s-14.4°C62.2%0hPa0V00:00:0000:00:0000:00:00
DL9RDZ-12026-08-31 23:12:1163.94114-22.62655151°27km/h3511m3.4m/s-14.0°C67.3%0hPa0V00:00:0000:00:0000:00:00
DL9RDZ-12026-08-31 23:12:0163.94175-22.62748148°27km/h3472m4.4m/s-13.7°C68.3%0hPa0V00:00:0000:00:0000:00:00
DL9RDZ-12026-08-31 23:11:5163.94238-22.62834146°33km/h3428m4.2m/s-13.4°C68.4%0hPa0V00:00:0000:00:0000:00:00
DL9RDZ-12026-08-31 23:11:4063.94313-22.62932148°29km/h3381m4.4m/s-13.1°C67.9%0hPa0V00:00:0000:00:0000:00:00
DL9RDZ-12026-08-31 23:11:2963.94374-22.63008151°26km/h3335m7.1m/s-12.7°C69.6%0hPa0V00:00:0000:00:0000:00:00
DL9RDZ-12026-08-31 23:11:1963.94442-22.63087149°31km/h3281m7.4m/s-12.4°C74.3%0hPa0V00:00:0000:00:0000:00:00
DL9RDZ-12026-08-31 23:11:0863.94511-22.63172155°31km/h3213m4.5m/s-11.9°C75.8%0hPa0V00:00:0000:00:0000:00:00
DL9RDZ-12026-08-31 23:10:2563.94743-22.63420153°16km/h2992m4.1m/s-10.2°C63.6%0hPa0V00:00:0000:00:0000:00:00
DL9RDZ-12026-08-31 23:10:1563.94790-22.63485163°22km/h2945m5.1m/s-9.8°C61.0%0hPa0V00:00:0000:00:0000:00:00
DL9RDZ-12026-08-31 23:10:0363.94835-22.63516166°18km/h2898m6.2m/s-9.6°C66.1%0hPa0V00:00:0000:00:0000:00:00
DL9RDZ-12026-08-31 23:09:2563.94967-22.63634191°15km/h2702m5.1m/s-8.5°C84.1%0hPa0V00:00:0000:00:0000:00:00
DL9RDZ-12026-08-31 23:09:1463.94998-22.63625202°9km/h2647m5.5m/s-8.0°C81.6%0hPa0V00:00:0000:00:0000:00:00
DL9RDZ-12026-08-31 23:09:0363.95033-22.63598221°11km/h2589m4.8m/s-7.9°C84.5%0hPa0V00:00:0000:00:0000:00:00
DL9RDZ-12026-08-31 23:08:5263.95059-22.63561235°11km/h2533m4.4m/s-7.5°C81.9%0hPa0V00:00:0000:00:0000:00:00
DL9RDZ-12026-08-31 23:08:1463.95180-22.63382207°15km/h2344m3.7m/s-6.2°C86.0%0hPa0V00:00:0000:00:0000:00:00
DL9RDZ-12026-08-31 23:08:0463.95203-22.63351193°7km/h2281m5.7m/s-5.7°C90.7%0hPa0V00:00:0000:00:0000:00:00
DL9RDZ-12026-08-31 23:07:5363.95228-22.63324211°9km/h2230m5.3m/s-5.4°C93.7%0hPa0V00:00:0000:00:0000:00:00
DL9RDZ-12026-08-31 23:07:4363.95252-22.63301220°11km/h2187m4.0m/s-5.0°C92.6%0hPa0V00:00:0000:00:0000:00:00
DL9RDZ-12026-08-31 23:07:3263.95273-22.63263303°4km/h2138m5.1m/s-4.6°C87.6%0hPa0V00:00:0000:00:0000:00:00
DL9RDZ-12026-08-31 23:07:2163.95286-22.63232246°7km/h2073m7.4m/s-4.0°C84.9%0hPa0V00:00:0000:00:0000:00:00
DL9RDZ-12026-08-31 23:07:1163.95295-22.63200222°11km/h2017m6.0m/s-3.5°C82.4%0hPa0V00:00:0000:00:0000:00:00
DL9RDZ-12026-08-31 23:07:0063.95316-22.63161205°13km/h1953m4.7m/s-3.1°C74.9%0hPa0V00:00:0000:00:0000:00:00
DL9RDZ-12026-08-31 23:06:5063.95338-22.63142134°5km/h1898m6.0m/s-2.7°C73.9%0hPa0V00:00:0000:00:0000:00:00
DL9RDZ-12026-08-31 23:06:4063.95365-22.63137192°11km/h1844m7.5m/s-2.4°C75.1%0hPa0V00:00:0000:00:0000:00:00
DL9RDZ-12026-08-31 23:06:2963.95401-22.63120184°16km/h1778m5.2m/s-1.8°C75.8%0hPa0V00:00:0000:00:0000:00:00
DL9RDZ-12026-08-31 23:06:1863.95440-22.63111202°11km/h1718m5.0m/s-1.3°C75.7%0hPa0V00:00:0000:00:0000:00:00
DL9RDZ-12026-08-31 23:06:0863.95480-22.63091183°20km/h1661m5.3m/s-0.7°C70.8%0hPa0V00:00:0000:00:0000:00:00
DL9RDZ-12026-08-31 23:05:5763.95515-22.63069216°13km/h1599m5.8m/s-0.2°C68.7%0hPa0V00:00:0000:00:0000:00:00
DL9RDZ-12026-08-31 23:05:4763.95545-22.63045214°13km/h1542m5.6m/s-0.3°C80.8%0hPa0V00:00:0000:00:0000:00:00
DL9RDZ-12026-08-31 23:05:3763.95586-22.63006196°16km/h1486m5.4m/s0.1°C79.7%0hPa0V00:00:0000:00:0000:00:00
DL9RDZ-12026-08-31 23:05:2663.95632-22.62938212°22km/h1426m6.3m/s0.7°C77.2%0hPa0V00:00:0000:00:0000:00:00
DL9RDZ-12026-08-31 23:05:1663.95674-22.62881205°18km/h1367m6.2m/s1.3°C76.7%0hPa0V00:00:0000:00:0000:00:00
DL9RDZ-12026-08-31 23:05:0663.95711-22.62827210°16km/h1316m5.6m/s1.8°C75.0%0hPa0V00:00:0000:00:0000:00:00
DL9RDZ-12026-08-31 23:04:5663.95757-22.62782207°27km/h1264m4.4m/s2.3°C73.4%0hPa0V00:00:0000:00:0000:00:00
DL9RDZ-12026-08-31 23:04:4563.95808-22.62727213°22km/h1198m6.0m/s2.9°C71.0%0hPa0V00:00:0000:00:0000:00:00
DL9RDZ-12026-08-31 23:04:3463.95860-22.62675214°18km/h1134m5.5m/s3.5°C69.1%0hPa0V00:00:0000:00:0000:00:00
DL9RDZ-12026-08-31 23:04:2363.95913-22.62623211°16km/h1076m5.8m/s3.9°C67.1%0hPa0V00:00:0000:00:0000:00:00
DL9RDZ-12026-08-31 23:04:1363.95959-22.62580219°22km/h1025m5.5m/s4.2°C65.0%0hPa0V00:00:0000:00:0000:00:00
DL9RDZ-12026-08-31 23:04:0263.96010-22.62514219°24km/h968m5.4m/s4.7°C59.3%0hPa0V00:00:0000:00:0000:00:00
DL9RDZ-12026-08-31 23:03:5163.96067-22.62444220°29km/h912m4.6m/s5.2°C0%0hPa0V00:00:0000:00:0000:00:00
DL9RDZ-12026-08-31 23:03:4163.96117-22.62369206°35km/h862m6.0m/s0°C0%0hPa0V00:00:0000:00:0000:00:00
DL9RDZ-12026-08-31 23:03:3063.96178-22.62286209°26km/h805m5.7m/s0°C0%0hPa0V00:00:0000:00:0000:00:00
DL9RDZ-12026-08-31 23:03:1963.96240-22.62228210°27km/h747m5.3m/s0°C0%0hPa0V00:00:0000:00:0000:00:00


GPX KML Map

© wettersonde.net (DO2JMG) - 2026  -  -